<?xml version="1.0" encoding="UTF-8" standalone="no" ?>
<gpx xmlns="http://www.topografix.com/GPX/1/1" xmlns:xsi="http://www.w3.org/2001/XMLSchema-instance" xsi:schemaLocation="http://www.topografix.com/GPX/1/1 http://www.topografix.com/GPX/1/1/gpx.xsd" version="1.1" creator="VisuGPX - https://www.visugpx.com">
  <metadata>
    <name>VTT Ctav Home autour de Vesseaux</name>
    <desc><![CDATA[Petite virée sur les crêtes aux alentours du village de Vesseaux]]></desc>
  </metadata>
  <trk>
    <name><![CDATA[04-DEC-13 16:17:40]]></name>
    <trkseg>
      <trkpt lat="44.65239" lon="4.44576">
        <ele>177.98</ele>
        <time>2013-12-04T13:05:34Z</time>
      </trkpt>
      <trkpt lat="44.65239" lon="4.44577">
        <ele>177.5</ele>
        <time>2013-12-04T13:05:35Z</time>
      </trkpt>
      <trkpt lat="44.65239" lon="4.44578">
        <ele>178.46</ele>
        <time>2013-12-04T13:05:37Z</time>
      </trkpt>
      <trkpt lat="44.65239" lon="4.44577">
        <ele>181.83</ele>
        <time>2013-12-04T13:05:38Z</time>
      </trkpt>
      <trkpt lat="44.65239" lon="4.44577">
        <ele>185.19</ele>
        <time>2013-12-04T13:05:39Z</time>
      </trkpt>
      <trkpt lat="44.65238" lon="4.44577">
        <ele>188.56</ele>
        <time>2013-12-04T13:05:40Z</time>
      </trkpt>
      <trkpt lat="44.65238" lon="4.44577">
        <ele>194.8</ele>
        <time>2013-12-04T13:05:42Z</time>
      </trkpt>
      <trkpt lat="44.65238" lon="4.44576">
        <ele>199.61</ele>
        <time>2013-12-04T13:05:44Z</time>
      </trkpt>
      <trkpt lat="44.65238" lon="4.44576">
        <ele>204.42</ele>
        <time>2013-12-04T13:05:46Z</time>
      </trkpt>
      <trkpt lat="44.65238" lon="4.44576">
        <ele>208.74</ele>
        <time>2013-12-04T13:05:48Z</time>
      </trkpt>
      <trkpt lat="44.65238" lon="4.44576">
        <ele>213.07</ele>
        <time>2013-12-04T13:05:50Z</time>
      </trkpt>
      <trkpt lat="44.65238" lon="4.44577">
        <ele>217.4</ele>
        <time>2013-12-04T13:05:52Z</time>
      </trkpt>
      <trkpt lat="44.65239" lon="4.44577">
        <ele>221.24</ele>
        <time>2013-12-04T13:05:54Z</time>
      </trkpt>
      <trkpt lat="44.65239" lon="4.44577">
        <ele>225.09</ele>
        <time>2013-12-04T13:05:56Z</time>
      </trkpt>
      <trkpt lat="44.65239" lon="4.44576">
        <ele>228.45</ele>
        <time>2013-12-04T13:05:58Z</time>
      </trkpt>
      <trkpt lat="44.6524" lon="4.44576">
        <ele>231.81</ele>
        <time>2013-12-04T13:06:00Z</time>
      </trkpt>
      <trkpt lat="44.6524" lon="4.44576">
        <ele>235.66</ele>
        <time>2013-12-04T13:06:03Z</time>
      </trkpt>
      <trkpt lat="44.6524" lon="4.44576">
        <ele>239.99</ele>
        <time>2013-12-04T13:06:06Z</time>
      </trkpt>
      <trkpt lat="44.6524" lon="4.44576">
        <ele>243.35</ele>
        <time>2013-12-04T13:06:09Z</time>
      </trkpt>
      <trkpt lat="44.6524" lon="4.44575">
        <ele>245.75</ele>
        <time>2013-12-04T13:06:11Z</time>
      </trkpt>
      <trkpt lat="44.65242" lon="4.44585">
        <ele>177.5</ele>
        <time>2013-12-04T13:10:49Z</time>
      </trkpt>
      <trkpt lat="44.65241" lon="4.44585">
        <ele>177.5</ele>
        <time>2013-12-04T13:10:50Z</time>
      </trkpt>
      <trkpt lat="44.65244" lon="4.44582">
        <ele>180.87</ele>
        <time>2013-12-04T13:11:03Z</time>
      </trkpt>
      <trkpt lat="44.65244" lon="4.44582">
        <ele>183.75</ele>
        <time>2013-12-04T13:11:04Z</time>
      </trkpt>
      <trkpt lat="44.65244" lon="4.44583">
        <ele>187.11</ele>
        <time>2013-12-04T13:11:05Z</time>
      </trkpt>
      <trkpt lat="44.65244" lon="4.44583">
        <ele>190</ele>
        <time>2013-12-04T13:11:06Z</time>
      </trkpt>
      <trkpt lat="44.65244" lon="4.44583">
        <ele>193.36</ele>
        <time>2013-12-04T13:11:07Z</time>
      </trkpt>
      <trkpt lat="44.65244" lon="4.44584">
        <ele>196.25</ele>
        <time>2013-12-04T13:11:08Z</time>
      </trkpt>
      <trkpt lat="44.65242" lon="4.44584">
        <ele>202.01</ele>
        <time>2013-12-04T13:11:10Z</time>
      </trkpt>
      <trkpt lat="44.65238" lon="4.44581">
        <ele>209.7</ele>
        <time>2013-12-04T13:11:13Z</time>
      </trkpt>
      <trkpt lat="44.65238" lon="4.44576">
        <ele>214.51</ele>
        <time>2013-12-04T13:11:15Z</time>
      </trkpt>
      <trkpt lat="44.65239" lon="4.44571">
        <ele>218.84</ele>
        <time>2013-12-04T13:11:17Z</time>
      </trkpt>
      <trkpt lat="44.65239" lon="4.44564">
        <ele>226.05</ele>
        <time>2013-12-04T13:11:21Z</time>
      </trkpt>
      <trkpt lat="44.65239" lon="4.44564">
        <ele>229.41</ele>
        <time>2013-12-04T13:11:23Z</time>
      </trkpt>
      <trkpt lat="44.65239" lon="4.44564">
        <ele>232.78</ele>
        <time>2013-12-04T13:11:25Z</time>
      </trkpt>
      <trkpt lat="44.65239" lon="4.44564">
        <ele>237.1</ele>
        <time>2013-12-04T13:11:28Z</time>
      </trkpt>
      <trkpt lat="44.65239" lon="4.44564">
        <ele>238.06</ele>
        <time>2013-12-04T13:11:29Z</time>
      </trkpt>
      <trkpt lat="44.65238" lon="4.44556">
        <ele>243.35</ele>
        <time>2013-12-04T13:11:33Z</time>
      </trkpt>
      <trkpt lat="44.65237" lon="4.44549">
        <ele>245.75</ele>
        <time>2013-12-04T13:11:35Z</time>
      </trkpt>
      <trkpt lat="44.65239" lon="4.44527">
        <ele>250.56</ele>
        <time>2013-12-04T13:11:40Z</time>
      </trkpt>
      <trkpt lat="44.65238" lon="4.44514">
        <ele>252.96</ele>
        <time>2013-12-04T13:11:43Z</time>
      </trkpt>
      <trkpt lat="44.65247" lon="4.44499">
        <ele>257.29</ele>
        <time>2013-12-04T13:11:48Z</time>
      </trkpt>
      <trkpt lat="44.65271" lon="4.44467">
        <ele>259.21</ele>
        <time>2013-12-04T13:11:57Z</time>
      </trkpt>
      <trkpt lat="44.6528" lon="4.44444">
        <ele>263.06</ele>
        <time>2013-12-04T13:12:04Z</time>
      </trkpt>
      <trkpt lat="44.65281" lon="4.44438">
        <ele>266.42</ele>
        <time>2013-12-04T13:12:12Z</time>
      </trkpt>
      <trkpt lat="44.65283" lon="4.44441">
        <ele>269.79</ele>
        <time>2013-12-04T13:12:20Z</time>
      </trkpt>
      <trkpt lat="44.65284" lon="4.44437">
        <ele>271.71</ele>
        <time>2013-12-04T13:12:25Z</time>
      </trkpt>
      <trkpt lat="44.6528" lon="4.44423">
        <ele>273.63</ele>
        <time>2013-12-04T13:12:36Z</time>
      </trkpt>
      <trkpt lat="44.6528" lon="4.44423">
        <ele>275.07</ele>
        <time>2013-12-04T13:12:43Z</time>
      </trkpt>
      <trkpt lat="44.65274" lon="4.44418">
        <ele>275.56</ele>
        <time>2013-12-04T13:12:47Z</time>
      </trkpt>
      <trkpt lat="44.65267" lon="4.44404">
        <ele>276.04</ele>
        <time>2013-12-04T13:12:52Z</time>
      </trkpt>
      <trkpt lat="44.6525" lon="4.44385">
        <ele>275.07</ele>
        <time>2013-12-04T13:12:57Z</time>
      </trkpt>
      <trkpt lat="44.65222" lon="4.44354">
        <ele>274.59</ele>
        <time>2013-12-04T13:13:07Z</time>
      </trkpt>
      <trkpt lat="44.65202" lon="4.44334">
        <ele>273.63</ele>
        <time>2013-12-04T13:13:13Z</time>
      </trkpt>
      <trkpt lat="44.65194" lon="4.44329">
        <ele>273.15</ele>
        <time>2013-12-04T13:13:15Z</time>
      </trkpt>
      <trkpt lat="44.65183" lon="4.44318">
        <ele>273.15</ele>
        <time>2013-12-04T13:13:18Z</time>
      </trkpt>
      <trkpt lat="44.65178" lon="4.44314">
        <ele>272.67</ele>
        <time>2013-12-04T13:13:19Z</time>
      </trkpt>
      <trkpt lat="44.65117" lon="4.44254">
        <ele>270.27</ele>
        <time>2013-12-04T13:13:31Z</time>
      </trkpt>
      <trkpt lat="44.6505" lon="4.44183">
        <ele>267.38</ele>
        <time>2013-12-04T13:13:44Z</time>
      </trkpt>
      <trkpt lat="44.64988" lon="4.44121">
        <ele>264.5</ele>
        <time>2013-12-04T13:13:55Z</time>
      </trkpt>
      <trkpt lat="44.64915" lon="4.44044">
        <ele>261.14</ele>
        <time>2013-12-04T13:14:07Z</time>
      </trkpt>
      <trkpt lat="44.64833" lon="4.43961">
        <ele>259.21</ele>
        <time>2013-12-04T13:14:21Z</time>
      </trkpt>
      <trkpt lat="44.64828" lon="4.43955">
        <ele>259.21</ele>
        <time>2013-12-04T13:14:22Z</time>
      </trkpt>
      <trkpt lat="44.64823" lon="4.4395">
        <ele>258.73</ele>
        <time>2013-12-04T13:14:23Z</time>
      </trkpt>
      <trkpt lat="44.64786" lon="4.43909">
        <ele>259.21</ele>
        <time>2013-12-04T13:14:30Z</time>
      </trkpt>
      <trkpt lat="44.6477" lon="4.43892">
        <ele>259.21</ele>
        <time>2013-12-04T13:14:33Z</time>
      </trkpt>
      <trkpt lat="44.64704" lon="4.43823">
        <ele>258.73</ele>
        <time>2013-12-04T13:14:45Z</time>
      </trkpt>
      <trkpt lat="44.64699" lon="4.43819">
        <ele>259.21</ele>
        <time>2013-12-04T13:14:46Z</time>
      </trkpt>
      <trkpt lat="44.64645" lon="4.43756">
        <ele>259.69</ele>
        <time>2013-12-04T13:14:59Z</time>
      </trkpt>
      <trkpt lat="44.64644" lon="4.43757">
        <ele>260.17</ele>
        <time>2013-12-04T13:15:09Z</time>
      </trkpt>
      <trkpt lat="44.64642" lon="4.43757">
        <ele>260.17</ele>
        <time>2013-12-04T13:15:10Z</time>
      </trkpt>
      <trkpt lat="44.64641" lon="4.43758">
        <ele>260.17</ele>
        <time>2013-12-04T13:15:11Z</time>
      </trkpt>
      <trkpt lat="44.64639" lon="4.43757">
        <ele>259.69</ele>
        <time>2013-12-04T13:15:12Z</time>
      </trkpt>
      <trkpt lat="44.64637" lon="4.43757">
        <ele>259.69</ele>
        <time>2013-12-04T13:15:13Z</time>
      </trkpt>
      <trkpt lat="44.64635" lon="4.43756">
        <ele>260.17</ele>
        <time>2013-12-04T13:15:14Z</time>
      </trkpt>
      <trkpt lat="44.64614" lon="4.43763">
        <ele>261.62</ele>
        <time>2013-12-04T13:15:26Z</time>
      </trkpt>
      <trkpt lat="44.64596" lon="4.43793">
        <ele>264.5</ele>
        <time>2013-12-04T13:15:38Z</time>
      </trkpt>
      <trkpt lat="44.64579" lon="4.43815">
        <ele>266.42</ele>
        <time>2013-12-04T13:15:49Z</time>
      </trkpt>
      <trkpt lat="44.64574" lon="4.43821">
        <ele>267.38</ele>
        <time>2013-12-04T13:15:54Z</time>
      </trkpt>
      <trkpt lat="44.64573" lon="4.43822">
        <ele>267.86</ele>
        <time>2013-12-04T13:15:55Z</time>
      </trkpt>
      <trkpt lat="44.64572" lon="4.43824">
        <ele>267.86</ele>
        <time>2013-12-04T13:15:56Z</time>
      </trkpt>
      <trkpt lat="44.6457" lon="4.43826">
        <ele>268.35</ele>
        <time>2013-12-04T13:15:57Z</time>
      </trkpt>
      <trkpt lat="44.64569" lon="4.43828">
        <ele>268.35</ele>
        <time>2013-12-04T13:15:58Z</time>
      </trkpt>
      <trkpt lat="44.64567" lon="4.43829">
        <ele>268.83</ele>
        <time>2013-12-04T13:15:59Z</time>
      </trkpt>
      <trkpt lat="44.64567" lon="4.4383">
        <ele>268.83</ele>
        <time>2013-12-04T13:16:00Z</time>
      </trkpt>
      <trkpt lat="44.64565" lon="4.43832">
        <ele>269.31</ele>
        <time>2013-12-04T13:16:01Z</time>
      </trkpt>
      <trkpt lat="44.64551" lon="4.43845">
        <ele>271.23</ele>
        <time>2013-12-04T13:16:13Z</time>
      </trkpt>
      <trkpt lat="44.64534" lon="4.43857">
        <ele>273.63</ele>
        <time>2013-12-04T13:16:26Z</time>
      </trkpt>
      <trkpt lat="44.64516" lon="4.43875">
        <ele>275.56</ele>
        <time>2013-12-04T13:16:39Z</time>
      </trkpt>
      <trkpt lat="44.64495" lon="4.43893">
        <ele>277.96</ele>
        <time>2013-12-04T13:16:54Z</time>
      </trkpt>
      <trkpt lat="44.64474" lon="4.43909">
        <ele>280.36</ele>
        <time>2013-12-04T13:17:07Z</time>
      </trkpt>
      <trkpt lat="44.64456" lon="4.43923">
        <ele>282.28</ele>
        <time>2013-12-04T13:17:18Z</time>
      </trkpt>
      <trkpt lat="44.64453" lon="4.43926">
        <ele>282.28</ele>
        <time>2013-12-04T13:17:20Z</time>
      </trkpt>
      <trkpt lat="44.64451" lon="4.43926">
        <ele>282.77</ele>
        <time>2013-12-04T13:17:21Z</time>
      </trkpt>
      <trkpt lat="44.6445" lon="4.43926">
        <ele>282.77</ele>
        <time>2013-12-04T13:17:22Z</time>
      </trkpt>
      <trkpt lat="44.64432" lon="4.43921">
        <ele>284.21</ele>
        <time>2013-12-04T13:17:33Z</time>
      </trkpt>
      <trkpt lat="44.64422" lon="4.43909">
        <ele>285.17</ele>
        <time>2013-12-04T13:17:47Z</time>
      </trkpt>
      <trkpt lat="44.64416" lon="4.43907">
        <ele>285.65</ele>
        <time>2013-12-04T13:17:56Z</time>
      </trkpt>
      <trkpt lat="44.64409" lon="4.43909">
        <ele>286.13</ele>
        <time>2013-12-04T13:18:01Z</time>
      </trkpt>
      <trkpt lat="44.64408" lon="4.4391">
        <ele>286.13</ele>
        <time>2013-12-04T13:18:02Z</time>
      </trkpt>
      <trkpt lat="44.64407" lon="4.4391">
        <ele>286.61</ele>
        <time>2013-12-04T13:18:03Z</time>
      </trkpt>
      <trkpt lat="44.64398" lon="4.43918">
        <ele>288.05</ele>
        <time>2013-12-04T13:18:12Z</time>
      </trkpt>
      <trkpt lat="44.64396" lon="4.43919">
        <ele>288.05</ele>
        <time>2013-12-04T13:18:13Z</time>
      </trkpt>
      <trkpt lat="44.64394" lon="4.4392">
        <ele>288.05</ele>
        <time>2013-12-04T13:18:14Z</time>
      </trkpt>
      <trkpt lat="44.64392" lon="4.43921">
        <ele>288.05</ele>
        <time>2013-12-04T13:18:15Z</time>
      </trkpt>
      <trkpt lat="44.6439" lon="4.43922">
        <ele>288.53</ele>
        <time>2013-12-04T13:18:16Z</time>
      </trkpt>
      <trkpt lat="44.64388" lon="4.43923">
        <ele>289.01</ele>
        <time>2013-12-04T13:18:17Z</time>
      </trkpt>
      <trkpt lat="44.64387" lon="4.43925">
        <ele>289.49</ele>
        <time>2013-12-04T13:18:18Z</time>
      </trkpt>
      <trkpt lat="44.64385" lon="4.43926">
        <ele>289.49</ele>
        <time>2013-12-04T13:18:19Z</time>
      </trkpt>
      <trkpt lat="44.64384" lon="4.43928">
        <ele>289.97</ele>
        <time>2013-12-04T13:18:20Z</time>
      </trkpt>
      <trkpt lat="44.64383" lon="4.4393">
        <ele>290.46</ele>
        <time>2013-12-04T13:18:22Z</time>
      </trkpt>
      <trkpt lat="44.6437" lon="4.43937">
        <ele>291.9</ele>
        <time>2013-12-04T13:18:34Z</time>
      </trkpt>
      <trkpt lat="44.64364" lon="4.43941">
        <ele>292.86</ele>
        <time>2013-12-04T13:18:40Z</time>
      </trkpt>
      <trkpt lat="44.64363" lon="4.43943">
        <ele>293.34</ele>
        <time>2013-12-04T13:18:44Z</time>
      </trkpt>
      <trkpt lat="44.64362" lon="4.43943">
        <ele>293.34</ele>
        <time>2013-12-04T13:18:46Z</time>
      </trkpt>
      <trkpt lat="44.64356" lon="4.43946">
        <ele>294.3</ele>
        <time>2013-12-04T13:18:55Z</time>
      </trkpt>
      <trkpt lat="44.64354" lon="4.43946">
        <ele>293.82</ele>
        <time>2013-12-04T13:18:58Z</time>
      </trkpt>
      <trkpt lat="44.64353" lon="4.43943">
        <ele>294.3</ele>
        <time>2013-12-04T13:19:00Z</time>
      </trkpt>
      <trkpt lat="44.64352" lon="4.43942">
        <ele>293.82</ele>
        <time>2013-12-04T13:19:01Z</time>
      </trkpt>
      <trkpt lat="44.64347" lon="4.43936">
        <ele>294.78</ele>
        <time>2013-12-04T13:19:12Z</time>
      </trkpt>
      <trkpt lat="44.64344" lon="4.43934">
        <ele>295.26</ele>
        <time>2013-12-04T13:19:17Z</time>
      </trkpt>
      <trkpt lat="44.64343" lon="4.43933">
        <ele>295.74</ele>
        <time>2013-12-04T13:19:18Z</time>
      </trkpt>
      <trkpt lat="44.64342" lon="4.43931">
        <ele>295.74</ele>
        <time>2013-12-04T13:19:19Z</time>
      </trkpt>
      <trkpt lat="44.6434" lon="4.4393">
        <ele>296.7</ele>
        <time>2013-12-04T13:19:21Z</time>
      </trkpt>
      <trkpt lat="44.64338" lon="4.43929">
        <ele>297.18</ele>
        <time>2013-12-04T13:19:22Z</time>
      </trkpt>
      <trkpt lat="44.64337" lon="4.43927">
        <ele>297.18</ele>
        <time>2013-12-04T13:19:36Z</time>
      </trkpt>
      <trkpt lat="44.64333" lon="4.43922">
        <ele>296.7</ele>
        <time>2013-12-04T13:19:48Z</time>
      </trkpt>
      <trkpt lat="44.64332" lon="4.4392">
        <ele>295.74</ele>
        <time>2013-12-04T13:20:04Z</time>
      </trkpt>
      <trkpt lat="44.64331" lon="4.43918">
        <ele>295.26</ele>
        <time>2013-12-04T13:20:16Z</time>
      </trkpt>
      <trkpt lat="44.6433" lon="4.43917">
        <ele>295.74</ele>
        <time>2013-12-04T13:20:31Z</time>
      </trkpt>
      <trkpt lat="44.6433" lon="4.43915">
        <ele>295.26</ele>
        <time>2013-12-04T13:20:43Z</time>
      </trkpt>
      <trkpt lat="44.6433" lon="4.43913">
        <ele>295.26</ele>
        <time>2013-12-04T13:21:00Z</time>
      </trkpt>
      <trkpt lat="44.64329" lon="4.43911">
        <ele>295.26</ele>
        <time>2013-12-04T13:21:17Z</time>
      </trkpt>
      <trkpt lat="44.64328" lon="4.43911">
        <ele>295.26</ele>
        <time>2013-12-04T13:21:29Z</time>
      </trkpt>
      <trkpt lat="44.64328" lon="4.43911">
        <ele>295.26</ele>
        <time>2013-12-04T13:21:45Z</time>
      </trkpt>
      <trkpt lat="44.64328" lon="4.43908">
        <ele>295.26</ele>
        <time>2013-12-04T13:22:00Z</time>
      </trkpt>
      <trkpt lat="44.64327" lon="4.43911">
        <ele>295.26</ele>
        <time>2013-12-04T13:22:14Z</time>
      </trkpt>
      <trkpt lat="44.64327" lon="4.43911">
        <ele>294.78</ele>
        <time>2013-12-04T13:22:23Z</time>
      </trkpt>
      <trkpt lat="44.64328" lon="4.4391">
        <ele>295.26</ele>
        <time>2013-12-04T13:22:45Z</time>
      </trkpt>
      <trkpt lat="44.64328" lon="4.4391">
        <ele>295.74</ele>
        <time>2013-12-04T13:23:11Z</time>
      </trkpt>
      <trkpt lat="44.64328" lon="4.43908">
        <ele>296.22</ele>
        <time>2013-12-04T13:23:31Z</time>
      </trkpt>
      <trkpt lat="44.64328" lon="4.43903">
        <ele>296.22</ele>
        <time>2013-12-04T13:23:39Z</time>
      </trkpt>
      <trkpt lat="44.64331" lon="4.43894">
        <ele>296.7</ele>
        <time>2013-12-04T13:23:45Z</time>
      </trkpt>
      <trkpt lat="44.64332" lon="4.4389">
        <ele>296.7</ele>
        <time>2013-12-04T13:23:48Z</time>
      </trkpt>
      <trkpt lat="44.64331" lon="4.43887">
        <ele>297.67</ele>
        <time>2013-12-04T13:24:02Z</time>
      </trkpt>
      <trkpt lat="44.64331" lon="4.43886">
        <ele>298.15</ele>
        <time>2013-12-04T13:24:22Z</time>
      </trkpt>
      <trkpt lat="44.6433" lon="4.43875">
        <ele>299.11</ele>
        <time>2013-12-04T13:24:29Z</time>
      </trkpt>
      <trkpt lat="44.64327" lon="4.43866">
        <ele>300.55</ele>
        <time>2013-12-04T13:24:35Z</time>
      </trkpt>
      <trkpt lat="44.64323" lon="4.4386">
        <ele>301.99</ele>
        <time>2013-12-04T13:24:47Z</time>
      </trkpt>
      <trkpt lat="44.64322" lon="4.4386">
        <ele>301.99</ele>
        <time>2013-12-04T13:25:00Z</time>
      </trkpt>
      <trkpt lat="44.64319" lon="4.43856">
        <ele>302.47</ele>
        <time>2013-12-04T13:25:13Z</time>
      </trkpt>
      <trkpt lat="44.64315" lon="4.43855">
        <ele>303.43</ele>
        <time>2013-12-04T13:25:25Z</time>
      </trkpt>
      <trkpt lat="44.64314" lon="4.43855">
        <ele>303.43</ele>
        <time>2013-12-04T13:25:26Z</time>
      </trkpt>
      <trkpt lat="44.6431" lon="4.43852">
        <ele>304.39</ele>
        <time>2013-12-04T13:25:38Z</time>
      </trkpt>
      <trkpt lat="44.64308" lon="4.43848">
        <ele>303.91</ele>
        <time>2013-12-04T13:25:53Z</time>
      </trkpt>
      <trkpt lat="44.64307" lon="4.43843">
        <ele>303.91</ele>
        <time>2013-12-04T13:26:17Z</time>
      </trkpt>
      <trkpt lat="44.64306" lon="4.4384">
        <ele>304.88</ele>
        <time>2013-12-04T13:26:29Z</time>
      </trkpt>
      <trkpt lat="44.64305" lon="4.43837">
        <ele>304.88</ele>
        <time>2013-12-04T13:26:47Z</time>
      </trkpt>
      <trkpt lat="44.64304" lon="4.43832">
        <ele>305.36</ele>
        <time>2013-12-04T13:26:59Z</time>
      </trkpt>
      <trkpt lat="44.64304" lon="4.43829">
        <ele>305.36</ele>
        <time>2013-12-04T13:27:06Z</time>
      </trkpt>
      <trkpt lat="44.64305" lon="4.43826">
        <ele>306.32</ele>
        <time>2013-12-04T13:27:12Z</time>
      </trkpt>
      <trkpt lat="44.6431" lon="4.43817">
        <ele>303.43</ele>
        <time>2013-12-04T13:27:18Z</time>
      </trkpt>
      <trkpt lat="44.6431" lon="4.43817">
        <ele>302.95</ele>
        <time>2013-12-04T13:27:26Z</time>
      </trkpt>
      <trkpt lat="44.64311" lon="4.43814">
        <ele>302.95</ele>
        <time>2013-12-04T13:27:30Z</time>
      </trkpt>
      <trkpt lat="44.64305" lon="4.43802">
        <ele>303.43</ele>
        <time>2013-12-04T13:27:40Z</time>
      </trkpt>
      <trkpt lat="44.64304" lon="4.43795">
        <ele>303.43</ele>
        <time>2013-12-04T13:27:49Z</time>
      </trkpt>
      <trkpt lat="44.64304" lon="4.43795">
        <ele>303.43</ele>
        <time>2013-12-04T13:28:14Z</time>
      </trkpt>
      <trkpt lat="44.64305" lon="4.43794">
        <ele>303.43</ele>
        <time>2013-12-04T13:28:38Z</time>
      </trkpt>
      <trkpt lat="44.6431" lon="4.43781">
        <ele>301.99</ele>
        <time>2013-12-04T13:28:48Z</time>
      </trkpt>
      <trkpt lat="44.64311" lon="4.43779">
        <ele>300.07</ele>
        <time>2013-12-04T13:29:00Z</time>
      </trkpt>
      <trkpt lat="44.64311" lon="4.43779">
        <ele>299.59</ele>
        <time>2013-12-04T13:29:15Z</time>
      </trkpt>
      <trkpt lat="44.64311" lon="4.43778">
        <ele>300.07</ele>
        <time>2013-12-04T13:29:29Z</time>
      </trkpt>
      <trkpt lat="44.64311" lon="4.43778">
        <ele>300.07</ele>
        <time>2013-12-04T13:29:35Z</time>
      </trkpt>
      <trkpt lat="44.64313" lon="4.4377">
        <ele>299.11</ele>
        <time>2013-12-04T13:29:42Z</time>
      </trkpt>
      <trkpt lat="44.64318" lon="4.43755">
        <ele>298.15</ele>
        <time>2013-12-04T13:29:48Z</time>
      </trkpt>
      <trkpt lat="44.64331" lon="4.43731">
        <ele>293.82</ele>
        <time>2013-12-04T13:29:55Z</time>
      </trkpt>
      <trkpt lat="44.64346" lon="4.43719">
        <ele>290.94</ele>
        <time>2013-12-04T13:30:00Z</time>
      </trkpt>
      <trkpt lat="44.64361" lon="4.4371">
        <ele>287.57</ele>
        <time>2013-12-04T13:30:04Z</time>
      </trkpt>
      <trkpt lat="44.64365" lon="4.43706">
        <ele>287.09</ele>
        <time>2013-12-04T13:30:05Z</time>
      </trkpt>
      <trkpt lat="44.64381" lon="4.43692">
        <ele>283.73</ele>
        <time>2013-12-04T13:30:09Z</time>
      </trkpt>
      <trkpt lat="44.64402" lon="4.43687">
        <ele>280.36</ele>
        <time>2013-12-04T13:30:14Z</time>
      </trkpt>
      <trkpt lat="44.64409" lon="4.43684">
        <ele>278.92</ele>
        <time>2013-12-04T13:30:16Z</time>
      </trkpt>
      <trkpt lat="44.64413" lon="4.43681">
        <ele>278.44</ele>
        <time>2013-12-04T13:30:17Z</time>
      </trkpt>
      <trkpt lat="44.64418" lon="4.43678">
        <ele>277.96</ele>
        <time>2013-12-04T13:30:18Z</time>
      </trkpt>
      <trkpt lat="44.64422" lon="4.43673">
        <ele>277</ele>
        <time>2013-12-04T13:30:19Z</time>
      </trkpt>
      <trkpt lat="44.64426" lon="4.43668">
        <ele>276.04</ele>
        <time>2013-12-04T13:30:20Z</time>
      </trkpt>
      <trkpt lat="44.6443" lon="4.43662">
        <ele>275.56</ele>
        <time>2013-12-04T13:30:21Z</time>
      </trkpt>
      <trkpt lat="44.64435" lon="4.43658">
        <ele>274.59</ele>
        <time>2013-12-04T13:30:22Z</time>
      </trkpt>
      <trkpt lat="44.6444" lon="4.43654">
        <ele>273.63</ele>
        <time>2013-12-04T13:30:23Z</time>
      </trkpt>
      <trkpt lat="44.64445" lon="4.43651">
        <ele>273.15</ele>
        <time>2013-12-04T13:30:24Z</time>
      </trkpt>
      <trkpt lat="44.64455" lon="4.43642">
        <ele>269.79</ele>
        <time>2013-12-04T13:30:27Z</time>
      </trkpt>
      <trkpt lat="44.64458" lon="4.43636">
        <ele>269.31</ele>
        <time>2013-12-04T13:30:33Z</time>
      </trkpt>
      <trkpt lat="44.64459" lon="4.43635">
        <ele>269.31</ele>
        <time>2013-12-04T13:30:34Z</time>
      </trkpt>
      <trkpt lat="44.64461" lon="4.43634">
        <ele>269.31</ele>
        <time>2013-12-04T13:30:35Z</time>
      </trkpt>
      <trkpt lat="44.64463" lon="4.43631">
        <ele>268.83</ele>
        <time>2013-12-04T13:30:36Z</time>
      </trkpt>
      <trkpt lat="44.64466" lon="4.43629">
        <ele>268.35</ele>
        <time>2013-12-04T13:30:37Z</time>
      </trkpt>
      <trkpt lat="44.64476" lon="4.43618">
        <ele>267.38</ele>
        <time>2013-12-04T13:30:40Z</time>
      </trkpt>
      <trkpt lat="44.64497" lon="4.43599">
        <ele>265.46</ele>
        <time>2013-12-04T13:30:46Z</time>
      </trkpt>
      <trkpt lat="44.64499" lon="4.43598">
        <ele>265.46</ele>
        <time>2013-12-04T13:30:47Z</time>
      </trkpt>
      <trkpt lat="44.645" lon="4.43596">
        <ele>265.46</ele>
        <time>2013-12-04T13:30:48Z</time>
      </trkpt>
      <trkpt lat="44.64501" lon="4.43594">
        <ele>264.98</ele>
        <time>2013-12-04T13:30:49Z</time>
      </trkpt>
      <trkpt lat="44.64502" lon="4.43592">
        <ele>264.98</ele>
        <time>2013-12-04T13:30:50Z</time>
      </trkpt>
      <trkpt lat="44.64501" lon="4.4359">
        <ele>264.98</ele>
        <time>2013-12-04T13:30:51Z</time>
      </trkpt>
      <trkpt lat="44.645" lon="4.43584">
        <ele>264.98</ele>
        <time>2013-12-04T13:30:53Z</time>
      </trkpt>
      <trkpt lat="44.64497" lon="4.43582">
        <ele>264.98</ele>
        <time>2013-12-04T13:30:54Z</time>
      </trkpt>
      <trkpt lat="44.64495" lon="4.43579">
        <ele>264.98</ele>
        <time>2013-12-04T13:30:55Z</time>
      </trkpt>
      <trkpt lat="44.64493" lon="4.43576">
        <ele>264.5</ele>
        <time>2013-12-04T13:30:56Z</time>
      </trkpt>
      <trkpt lat="44.64491" lon="4.43574">
        <ele>264.5</ele>
        <time>2013-12-04T13:30:57Z</time>
      </trkpt>
      <trkpt lat="44.64488" lon="4.43571">
        <ele>264.5</ele>
        <time>2013-12-04T13:30:58Z</time>
      </trkpt>
      <trkpt lat="44.64485" lon="4.43567">
        <ele>264.5</ele>
        <time>2013-12-04T13:30:59Z</time>
      </trkpt>
      <trkpt lat="44.64483" lon="4.43564">
        <ele>264.5</ele>
        <time>2013-12-04T13:31:00Z</time>
      </trkpt>
      <trkpt lat="44.64459" lon="4.43542">
        <ele>264.98</ele>
        <time>2013-12-04T13:31:08Z</time>
      </trkpt>
      <trkpt lat="44.64436" lon="4.43509">
        <ele>264.02</ele>
        <time>2013-12-04T13:31:19Z</time>
      </trkpt>
      <trkpt lat="44.64423" lon="4.43489">
        <ele>263.06</ele>
        <time>2013-12-04T13:31:24Z</time>
      </trkpt>
      <trkpt lat="44.64383" lon="4.43437">
        <ele>260.65</ele>
        <time>2013-12-04T13:31:33Z</time>
      </trkpt>
      <trkpt lat="44.64367" lon="4.43418">
        <ele>260.17</ele>
        <time>2013-12-04T13:31:36Z</time>
      </trkpt>
      <trkpt lat="44.64343" lon="4.43383">
        <ele>257.77</ele>
        <time>2013-12-04T13:31:41Z</time>
      </trkpt>
      <trkpt lat="44.64337" lon="4.43377">
        <ele>257.77</ele>
        <time>2013-12-04T13:31:42Z</time>
      </trkpt>
      <trkpt lat="44.64333" lon="4.4337">
        <ele>257.29</ele>
        <time>2013-12-04T13:31:43Z</time>
      </trkpt>
      <trkpt lat="44.64293" lon="4.43305">
        <ele>255.37</ele>
        <time>2013-12-04T13:31:52Z</time>
      </trkpt>
      <trkpt lat="44.64288" lon="4.43298">
        <ele>254.89</ele>
        <time>2013-12-04T13:31:53Z</time>
      </trkpt>
      <trkpt lat="44.64279" lon="4.43285">
        <ele>254.41</ele>
        <time>2013-12-04T13:31:55Z</time>
      </trkpt>
      <trkpt lat="44.64275" lon="4.43279">
        <ele>253.93</ele>
        <time>2013-12-04T13:31:56Z</time>
      </trkpt>
      <trkpt lat="44.64265" lon="4.43265">
        <ele>253.44</ele>
        <time>2013-12-04T13:31:58Z</time>
      </trkpt>
      <trkpt lat="44.64261" lon="4.43258">
        <ele>253.44</ele>
        <time>2013-12-04T13:31:59Z</time>
      </trkpt>
      <trkpt lat="44.64256" lon="4.43252">
        <ele>253.44</ele>
        <time>2013-12-04T13:32:00Z</time>
      </trkpt>
      <trkpt lat="44.64242" lon="4.43234">
        <ele>252.96</ele>
        <time>2013-12-04T13:32:03Z</time>
      </trkpt>
      <trkpt lat="44.64234" lon="4.43221">
        <ele>252.96</ele>
        <time>2013-12-04T13:32:05Z</time>
      </trkpt>
      <trkpt lat="44.6423" lon="4.43215">
        <ele>252.48</ele>
        <time>2013-12-04T13:32:06Z</time>
      </trkpt>
      <trkpt lat="44.64205" lon="4.43179">
        <ele>250.08</ele>
        <time>2013-12-04T13:32:12Z</time>
      </trkpt>
      <trkpt lat="44.642" lon="4.43174">
        <ele>249.6</ele>
        <time>2013-12-04T13:32:13Z</time>
      </trkpt>
      <trkpt lat="44.64194" lon="4.43171">
        <ele>249.6</ele>
        <time>2013-12-04T13:32:14Z</time>
      </trkpt>
      <trkpt lat="44.64189" lon="4.43167">
        <ele>249.6</ele>
        <time>2013-12-04T13:32:15Z</time>
      </trkpt>
      <trkpt lat="44.64185" lon="4.43161">
        <ele>249.6</ele>
        <time>2013-12-04T13:32:16Z</time>
      </trkpt>
      <trkpt lat="44.64183" lon="4.43153">
        <ele>248.64</ele>
        <time>2013-12-04T13:32:17Z</time>
      </trkpt>
      <trkpt lat="44.64183" lon="4.43145">
        <ele>249.12</ele>
        <time>2013-12-04T13:32:18Z</time>
      </trkpt>
      <trkpt lat="44.64184" lon="4.43138">
        <ele>249.12</ele>
        <time>2013-12-04T13:32:19Z</time>
      </trkpt>
      <trkpt lat="44.64184" lon="4.43131">
        <ele>249.12</ele>
        <time>2013-12-04T13:32:20Z</time>
      </trkpt>
      <trkpt lat="44.64182" lon="4.43114">
        <ele>248.64</ele>
        <time>2013-12-04T13:32:23Z</time>
      </trkpt>
      <trkpt lat="44.6418" lon="4.43108">
        <ele>248.64</ele>
        <time>2013-12-04T13:32:24Z</time>
      </trkpt>
      <trkpt lat="44.64178" lon="4.43103">
        <ele>248.64</ele>
        <time>2013-12-04T13:32:25Z</time>
      </trkpt>
      <trkpt lat="44.64164" lon="4.43076">
        <ele>248.64</ele>
        <time>2013-12-04T13:32:30Z</time>
      </trkpt>
      <trkpt lat="44.6416" lon="4.43071">
        <ele>248.64</ele>
        <time>2013-12-04T13:32:31Z</time>
      </trkpt>
      <trkpt lat="44.64156" lon="4.43066">
        <ele>248.64</ele>
        <time>2013-12-04T13:32:32Z</time>
      </trkpt>
      <trkpt lat="44.64152" lon="4.43061">
        <ele>248.16</ele>
        <time>2013-12-04T13:32:33Z</time>
      </trkpt>
      <trkpt lat="44.64147" lon="4.43057">
        <ele>248.16</ele>
        <time>2013-12-04T13:32:34Z</time>
      </trkpt>
      <trkpt lat="44.64137" lon="4.43046">
        <ele>248.16</ele>
        <time>2013-12-04T13:32:36Z</time>
      </trkpt>
      <trkpt lat="44.64132" lon="4.4304">
        <ele>247.68</ele>
        <time>2013-12-04T13:32:37Z</time>
      </trkpt>
      <trkpt lat="44.64123" lon="4.43029">
        <ele>247.2</ele>
        <time>2013-12-04T13:32:39Z</time>
      </trkpt>
      <trkpt lat="44.64118" lon="4.43023">
        <ele>247.2</ele>
        <time>2013-12-04T13:32:40Z</time>
      </trkpt>
      <trkpt lat="44.64113" lon="4.43017">
        <ele>247.2</ele>
        <time>2013-12-04T13:32:41Z</time>
      </trkpt>
      <trkpt lat="44.64061" lon="4.42958">
        <ele>245.75</ele>
        <time>2013-12-04T13:32:51Z</time>
      </trkpt>
      <trkpt lat="44.64056" lon="4.42952">
        <ele>245.27</ele>
        <time>2013-12-04T13:32:52Z</time>
      </trkpt>
      <trkpt lat="44.64042" lon="4.42934">
        <ele>244.79</ele>
        <time>2013-12-04T13:32:55Z</time>
      </trkpt>
      <trkpt lat="44.64038" lon="4.42928">
        <ele>244.31</ele>
        <time>2013-12-04T13:32:56Z</time>
      </trkpt>
      <trkpt lat="44.64023" lon="4.42913">
        <ele>244.31</ele>
        <time>2013-12-04T13:32:59Z</time>
      </trkpt>
      <trkpt lat="44.64019" lon="4.42908">
        <ele>243.83</ele>
        <time>2013-12-04T13:33:00Z</time>
      </trkpt>
      <trkpt lat="44.63977" lon="4.42847">
        <ele>242.87</ele>
        <time>2013-12-04T13:33:12Z</time>
      </trkpt>
      <trkpt lat="44.63956" lon="4.42808">
        <ele>242.39</ele>
        <time>2013-12-04T13:33:23Z</time>
      </trkpt>
      <trkpt lat="44.63957" lon="4.42806">
        <ele>242.39</ele>
        <time>2013-12-04T13:33:41Z</time>
      </trkpt>
      <trkpt lat="44.63957" lon="4.42804">
        <ele>242.39</ele>
        <time>2013-12-04T13:33:57Z</time>
      </trkpt>
      <trkpt lat="44.63956" lon="4.42794">
        <ele>241.91</ele>
        <time>2013-12-04T13:34:07Z</time>
      </trkpt>
      <trkpt lat="44.63955" lon="4.42793">
        <ele>242.87</ele>
        <time>2013-12-04T13:34:11Z</time>
      </trkpt>
      <trkpt lat="44.63956" lon="4.42791">
        <ele>242.39</ele>
        <time>2013-12-04T13:34:12Z</time>
      </trkpt>
      <trkpt lat="44.63957" lon="4.42789">
        <ele>242.87</ele>
        <time>2013-12-04T13:34:13Z</time>
      </trkpt>
      <trkpt lat="44.63958" lon="4.42787">
        <ele>242.87</ele>
        <time>2013-12-04T13:34:14Z</time>
      </trkpt>
      <trkpt lat="44.6396" lon="4.42783">
        <ele>242.39</ele>
        <time>2013-12-04T13:34:15Z</time>
      </trkpt>
      <trkpt lat="44.63962" lon="4.42779">
        <ele>242.39</ele>
        <time>2013-12-04T13:34:16Z</time>
      </trkpt>
      <trkpt lat="44.63966" lon="4.42774">
        <ele>242.39</ele>
        <time>2013-12-04T13:34:17Z</time>
      </trkpt>
      <trkpt lat="44.63974" lon="4.42762">
        <ele>241.43</ele>
        <time>2013-12-04T13:34:19Z</time>
      </trkpt>
      <trkpt lat="44.64003" lon="4.42709">
        <ele>238.06</ele>
        <time>2013-12-04T13:34:26Z</time>
      </trkpt>
      <trkpt lat="44.64007" lon="4.42703">
        <ele>237.58</ele>
        <time>2013-12-04T13:34:27Z</time>
      </trkpt>
      <trkpt lat="44.64011" lon="4.42701">
        <ele>237.58</ele>
        <time>2013-12-04T13:34:28Z</time>
      </trkpt>
      <trkpt lat="44.64015" lon="4.42703">
        <ele>237.1</ele>
        <time>2013-12-04T13:34:29Z</time>
      </trkpt>
      <trkpt lat="44.64019" lon="4.42707">
        <ele>236.62</ele>
        <time>2013-12-04T13:34:30Z</time>
      </trkpt>
      <trkpt lat="44.64023" lon="4.42712">
        <ele>236.62</ele>
        <time>2013-12-04T13:34:31Z</time>
      </trkpt>
      <trkpt lat="44.64039" lon="4.42735">
        <ele>234.7</ele>
        <time>2013-12-04T13:34:35Z</time>
      </trkpt>
      <trkpt lat="44.64045" lon="4.42737">
        <ele>234.22</ele>
        <time>2013-12-04T13:34:36Z</time>
      </trkpt>
      <trkpt lat="44.64051" lon="4.42738">
        <ele>234.22</ele>
        <time>2013-12-04T13:34:37Z</time>
      </trkpt>
      <trkpt lat="44.64057" lon="4.42737">
        <ele>233.26</ele>
        <time>2013-12-04T13:34:38Z</time>
      </trkpt>
      <trkpt lat="44.64063" lon="4.42735">
        <ele>233.26</ele>
        <time>2013-12-04T13:34:39Z</time>
      </trkpt>
      <trkpt lat="44.64068" lon="4.42734">
        <ele>233.26</ele>
        <time>2013-12-04T13:34:40Z</time>
      </trkpt>
      <trkpt lat="44.64072" lon="4.42735">
        <ele>233.26</ele>
        <time>2013-12-04T13:34:41Z</time>
      </trkpt>
      <trkpt lat="44.64075" lon="4.42737">
        <ele>233.74</ele>
        <time>2013-12-04T13:34:42Z</time>
      </trkpt>
      <trkpt lat="44.64078" lon="4.4274">
        <ele>234.22</ele>
        <time>2013-12-04T13:34:43Z</time>
      </trkpt>
      <trkpt lat="44.64081" lon="4.42744">
        <ele>234.7</ele>
        <time>2013-12-04T13:34:44Z</time>
      </trkpt>
      <trkpt lat="44.64083" lon="4.42746">
        <ele>234.7</ele>
        <time>2013-12-04T13:34:45Z</time>
      </trkpt>
      <trkpt lat="44.64085" lon="4.42747">
        <ele>235.18</ele>
        <time>2013-12-04T13:34:46Z</time>
      </trkpt>
      <trkpt lat="44.64088" lon="4.42747">
        <ele>235.66</ele>
        <time>2013-12-04T13:34:47Z</time>
      </trkpt>
      <trkpt lat="44.64091" lon="4.42748">
        <ele>235.66</ele>
        <time>2013-12-04T13:34:48Z</time>
      </trkpt>
      <trkpt lat="44.64094" lon="4.42747">
        <ele>235.66</ele>
        <time>2013-12-04T13:34:49Z</time>
      </trkpt>
      <trkpt lat="44.64097" lon="4.42746">
        <ele>235.66</ele>
        <time>2013-12-04T13:34:50Z</time>
      </trkpt>
      <trkpt lat="44.64112" lon="4.42736">
        <ele>236.62</ele>
        <time>2013-12-04T13:34:57Z</time>
      </trkpt>
      <trkpt lat="44.64114" lon="4.42735">
        <ele>237.1</ele>
        <time>2013-12-04T13:34:58Z</time>
      </trkpt>
      <trkpt lat="44.64115" lon="4.42734">
        <ele>237.58</ele>
        <time>2013-12-04T13:34:59Z</time>
      </trkpt>
      <trkpt lat="44.64117" lon="4.42732">
        <ele>237.58</ele>
        <time>2013-12-04T13:35:00Z</time>
      </trkpt>
      <trkpt lat="44.64119" lon="4.4273">
        <ele>237.58</ele>
        <time>2013-12-04T13:35:01Z</time>
      </trkpt>
      <trkpt lat="44.64121" lon="4.42729">
        <ele>238.06</ele>
        <time>2013-12-04T13:35:02Z</time>
      </trkpt>
      <trkpt lat="44.64122" lon="4.42727">
        <ele>238.06</ele>
        <time>2013-12-04T13:35:03Z</time>
      </trkpt>
      <trkpt lat="44.64148" lon="4.42712">
        <ele>240.47</ele>
        <time>2013-12-04T13:35:16Z</time>
      </trkpt>
      <trkpt lat="44.64171" lon="4.42712">
        <ele>241.91</ele>
        <time>2013-12-04T13:35:27Z</time>
      </trkpt>
      <trkpt lat="44.64174" lon="4.42713">
        <ele>241.91</ele>
        <time>2013-12-04T13:35:29Z</time>
      </trkpt>
      <trkpt lat="44.64176" lon="4.42714">
        <ele>242.39</ele>
        <time>2013-12-04T13:35:30Z</time>
      </trkpt>
      <trkpt lat="44.64178" lon="4.42714">
        <ele>242.39</ele>
        <time>2013-12-04T13:35:31Z</time>
      </trkpt>
      <trkpt lat="44.6418" lon="4.42714">
        <ele>242.87</ele>
        <time>2013-12-04T13:35:32Z</time>
      </trkpt>
      <trkpt lat="44.64182" lon="4.42715">
        <ele>242.87</ele>
        <time>2013-12-04T13:35:33Z</time>
      </trkpt>
      <trkpt lat="44.64196" lon="4.4272">
        <ele>243.83</ele>
        <time>2013-12-04T13:35:41Z</time>
      </trkpt>
      <trkpt lat="44.642" lon="4.42724">
        <ele>244.31</ele>
        <time>2013-12-04T13:35:42Z</time>
      </trkpt>
      <trkpt lat="44.64202" lon="4.42726">
        <ele>244.31</ele>
        <time>2013-12-04T13:35:43Z</time>
      </trkpt>
      <trkpt lat="44.64205" lon="4.42729">
        <ele>244.31</ele>
        <time>2013-12-04T13:35:44Z</time>
      </trkpt>
      <trkpt lat="44.64208" lon="4.42732">
        <ele>244.79</ele>
        <time>2013-12-04T13:35:45Z</time>
      </trkpt>
      <trkpt lat="44.64244" lon="4.42756">
        <ele>246.72</ele>
        <time>2013-12-04T13:36:00Z</time>
      </trkpt>
      <trkpt lat="44.64266" lon="4.42774">
        <ele>249.12</ele>
        <time>2013-12-04T13:36:13Z</time>
      </trkpt>
      <trkpt lat="44.64273" lon="4.42783">
        <ele>249.6</ele>
        <time>2013-12-04T13:36:17Z</time>
      </trkpt>
      <trkpt lat="44.64274" lon="4.42785">
        <ele>250.08</ele>
        <time>2013-12-04T13:36:18Z</time>
      </trkpt>
      <trkpt lat="44.64277" lon="4.42786">
        <ele>250.08</ele>
        <time>2013-12-04T13:36:19Z</time>
      </trkpt>
      <trkpt lat="44.64279" lon="4.42787">
        <ele>250.56</ele>
        <time>2013-12-04T13:36:20Z</time>
      </trkpt>
      <trkpt lat="44.64281" lon="4.42789">
        <ele>250.08</ele>
        <time>2013-12-04T13:36:21Z</time>
      </trkpt>
      <trkpt lat="44.64283" lon="4.4279">
        <ele>250.56</ele>
        <time>2013-12-04T13:36:22Z</time>
      </trkpt>
      <trkpt lat="44.64284" lon="4.42792">
        <ele>250.56</ele>
        <time>2013-12-04T13:36:23Z</time>
      </trkpt>
      <trkpt lat="44.64286" lon="4.42793">
        <ele>250.56</ele>
        <time>2013-12-04T13:36:24Z</time>
      </trkpt>
      <trkpt lat="44.64287" lon="4.42793">
        <ele>250.56</ele>
        <time>2013-12-04T13:36:25Z</time>
      </trkpt>
      <trkpt lat="44.64289" lon="4.42794">
        <ele>251.04</ele>
        <time>2013-12-04T13:36:26Z</time>
      </trkpt>
      <trkpt lat="44.64291" lon="4.42795">
        <ele>251.04</ele>
        <time>2013-12-04T13:36:27Z</time>
      </trkpt>
      <trkpt lat="44.64293" lon="4.42796">
        <ele>251.04</ele>
        <time>2013-12-04T13:36:28Z</time>
      </trkpt>
      <trkpt lat="44.64296" lon="4.42797">
        <ele>251.52</ele>
        <time>2013-12-04T13:36:29Z</time>
      </trkpt>
      <trkpt lat="44.64301" lon="4.428">
        <ele>252</ele>
        <time>2013-12-04T13:36:32Z</time>
      </trkpt>
      <trkpt lat="44.64303" lon="4.428">
        <ele>252</ele>
        <time>2013-12-04T13:36:33Z</time>
      </trkpt>
      <trkpt lat="44.64305" lon="4.428">
        <ele>252</ele>
        <time>2013-12-04T13:36:34Z</time>
      </trkpt>
      <trkpt lat="44.64308" lon="4.42801">
        <ele>252</ele>
        <time>2013-12-04T13:36:35Z</time>
      </trkpt>
      <trkpt lat="44.64309" lon="4.42802">
        <ele>252.48</ele>
        <time>2013-12-04T13:36:36Z</time>
      </trkpt>
      <trkpt lat="44.64311" lon="4.42802">
        <ele>252.48</ele>
        <time>2013-12-04T13:36:37Z</time>
      </trkpt>
      <trkpt lat="44.64313" lon="4.42802">
        <ele>252.48</ele>
        <time>2013-12-04T13:36:38Z</time>
      </trkpt>
      <trkpt lat="44.64315" lon="4.42802">
        <ele>252.96</ele>
        <time>2013-12-04T13:36:39Z</time>
      </trkpt>
      <trkpt lat="44.64317" lon="4.42802">
        <ele>252.96</ele>
        <time>2013-12-04T13:36:40Z</time>
      </trkpt>
      <trkpt lat="44.64319" lon="4.42803">
        <ele>252.96</ele>
        <time>2013-12-04T13:36:41Z</time>
      </trkpt>
      <trkpt lat="44.64321" lon="4.42804">
        <ele>253.44</ele>
        <time>2013-12-04T13:36:42Z</time>
      </trkpt>
      <trkpt lat="44.64343" lon="4.42814">
        <ele>254.89</ele>
        <time>2013-12-04T13:36:52Z</time>
      </trkpt>
      <trkpt lat="44.64346" lon="4.42815">
        <ele>254.89</ele>
        <time>2013-12-04T13:36:53Z</time>
      </trkpt>
      <trkpt lat="44.64348" lon="4.42816">
        <ele>254.89</ele>
        <time>2013-12-04T13:36:54Z</time>
      </trkpt>
      <trkpt lat="44.6435" lon="4.42817">
        <ele>255.37</ele>
        <time>2013-12-04T13:36:55Z</time>
      </trkpt>
      <trkpt lat="44.64352" lon="4.42817">
        <ele>255.37</ele>
        <time>2013-12-04T13:36:56Z</time>
      </trkpt>
      <trkpt lat="44.64354" lon="4.42817">
        <ele>255.85</ele>
        <time>2013-12-04T13:36:57Z</time>
      </trkpt>
      <trkpt lat="44.64356" lon="4.42818">
        <ele>255.85</ele>
        <time>2013-12-04T13:36:58Z</time>
      </trkpt>
      <trkpt lat="44.64358" lon="4.42818">
        <ele>255.85</ele>
        <time>2013-12-04T13:36:59Z</time>
      </trkpt>
      <trkpt lat="44.64384" lon="4.42822">
        <ele>257.77</ele>
        <time>2013-12-04T13:37:11Z</time>
      </trkpt>
      <trkpt lat="44.64405" lon="4.4282">
        <ele>258.73</ele>
        <time>2013-12-04T13:37:22Z</time>
      </trkpt>
      <trkpt lat="44.64412" lon="4.4282">
        <ele>259.69</ele>
        <time>2013-12-04T13:37:26Z</time>
      </trkpt>
      <trkpt lat="44.64414" lon="4.4282">
        <ele>259.69</ele>
        <time>2013-12-04T13:37:28Z</time>
      </trkpt>
      <trkpt lat="44.64416" lon="4.42821">
        <ele>259.69</ele>
        <time>2013-12-04T13:37:29Z</time>
      </trkpt>
      <trkpt lat="44.64418" lon="4.42821">
        <ele>259.69</ele>
        <time>2013-12-04T13:37:30Z</time>
      </trkpt>
      <trkpt lat="44.64449" lon="4.42814">
        <ele>262.58</ele>
        <time>2013-12-04T13:37:43Z</time>
      </trkpt>
      <trkpt lat="44.64452" lon="4.42815">
        <ele>262.58</ele>
        <time>2013-12-04T13:37:45Z</time>
      </trkpt>
      <trkpt lat="44.64457" lon="4.42814">
        <ele>263.06</ele>
        <time>2013-12-04T13:37:48Z</time>
      </trkpt>
      <trkpt lat="44.64458" lon="4.42813">
        <ele>263.06</ele>
        <time>2013-12-04T13:37:49Z</time>
      </trkpt>
      <trkpt lat="44.6446" lon="4.42812">
        <ele>263.54</ele>
        <time>2013-12-04T13:37:50Z</time>
      </trkpt>
      <trkpt lat="44.6447" lon="4.42808">
        <ele>264.02</ele>
        <time>2013-12-04T13:37:55Z</time>
      </trkpt>
      <trkpt lat="44.64472" lon="4.42816">
        <ele>264.98</ele>
        <time>2013-12-04T13:38:03Z</time>
      </trkpt>
      <trkpt lat="44.64471" lon="4.42817">
        <ele>264.98</ele>
        <time>2013-12-04T13:38:04Z</time>
      </trkpt>
      <trkpt lat="44.64467" lon="4.42821">
        <ele>265.46</ele>
        <time>2013-12-04T13:38:17Z</time>
      </trkpt>
      <trkpt lat="44.64467" lon="4.42821">
        <ele>265.46</ele>
        <time>2013-12-04T13:38:41Z</time>
      </trkpt>
      <trkpt lat="44.64467" lon="4.42821">
        <ele>264.98</ele>
        <time>2013-12-04T13:39:05Z</time>
      </trkpt>
      <trkpt lat="44.64465" lon="4.42822">
        <ele>265.46</ele>
        <time>2013-12-04T13:39:28Z</time>
      </trkpt>
      <trkpt lat="44.64446" lon="4.42823">
        <ele>266.9</ele>
        <time>2013-12-04T13:39:38Z</time>
      </trkpt>
      <trkpt lat="44.64425" lon="4.42815">
        <ele>268.83</ele>
        <time>2013-12-04T13:39:49Z</time>
      </trkpt>
      <trkpt lat="44.64401" lon="4.42807">
        <ele>268.83</ele>
        <time>2013-12-04T13:39:59Z</time>
      </trkpt>
      <trkpt lat="44.6437" lon="4.42802">
        <ele>270.75</ele>
        <time>2013-12-04T13:40:11Z</time>
      </trkpt>
      <trkpt lat="44.64358" lon="4.42796">
        <ele>271.71</ele>
        <time>2013-12-04T13:40:18Z</time>
      </trkpt>
      <trkpt lat="44.64356" lon="4.42795">
        <ele>271.71</ele>
        <time>2013-12-04T13:40:19Z</time>
      </trkpt>
      <trkpt lat="44.64333" lon="4.42774">
        <ele>273.15</ele>
        <time>2013-12-04T13:40:32Z</time>
      </trkpt>
      <trkpt lat="44.64331" lon="4.42774">
        <ele>273.15</ele>
        <time>2013-12-04T13:40:33Z</time>
      </trkpt>
      <trkpt lat="44.64328" lon="4.42772">
        <ele>273.63</ele>
        <time>2013-12-04T13:40:35Z</time>
      </trkpt>
      <trkpt lat="44.64323" lon="4.42766">
        <ele>274.11</ele>
        <time>2013-12-04T13:40:38Z</time>
      </trkpt>
      <trkpt lat="44.64322" lon="4.42762">
        <ele>274.11</ele>
        <time>2013-12-04T13:40:39Z</time>
      </trkpt>
      <trkpt lat="44.6432" lon="4.42759">
        <ele>274.11</ele>
        <time>2013-12-04T13:40:40Z</time>
      </trkpt>
      <trkpt lat="44.64319" lon="4.42756">
        <ele>274.11</ele>
        <time>2013-12-04T13:40:41Z</time>
      </trkpt>
      <trkpt lat="44.64319" lon="4.42752">
        <ele>274.11</ele>
        <time>2013-12-04T13:40:42Z</time>
      </trkpt>
      <trkpt lat="44.64318" lon="4.42748">
        <ele>274.11</ele>
        <time>2013-12-04T13:40:43Z</time>
      </trkpt>
      <trkpt lat="44.64317" lon="4.42745">
        <ele>274.11</ele>
        <time>2013-12-04T13:40:44Z</time>
      </trkpt>
      <trkpt lat="44.64316" lon="4.42742">
        <ele>274.59</ele>
        <time>2013-12-04T13:40:45Z</time>
      </trkpt>
      <trkpt lat="44.64314" lon="4.42739">
        <ele>274.59</ele>
        <time>2013-12-04T13:40:46Z</time>
      </trkpt>
      <trkpt lat="44.64313" lon="4.42736">
        <ele>274.59</ele>
        <time>2013-12-04T13:40:47Z</time>
      </trkpt>
      <trkpt lat="44.64309" lon="4.42721">
        <ele>275.07</ele>
        <time>2013-12-04T13:40:52Z</time>
      </trkpt>
      <trkpt lat="44.64307" lon="4.42717">
        <ele>275.56</ele>
        <time>2013-12-04T13:40:54Z</time>
      </trkpt>
      <trkpt lat="44.64305" lon="4.42715">
        <ele>275.56</ele>
        <time>2013-12-04T13:40:55Z</time>
      </trkpt>
      <trkpt lat="44.64304" lon="4.42713">
        <ele>275.56</ele>
        <time>2013-12-04T13:40:56Z</time>
      </trkpt>
      <trkpt lat="44.64303" lon="4.42711">
        <ele>275.56</ele>
        <time>2013-12-04T13:40:57Z</time>
      </trkpt>
      <trkpt lat="44.64302" lon="4.42709">
        <ele>276.04</ele>
        <time>2013-12-04T13:40:58Z</time>
      </trkpt>
      <trkpt lat="44.64288" lon="4.42696">
        <ele>277</ele>
        <time>2013-12-04T13:41:07Z</time>
      </trkpt>
      <trkpt lat="44.64286" lon="4.42695">
        <ele>277</ele>
        <time>2013-12-04T13:41:08Z</time>
      </trkpt>
      <trkpt lat="44.64285" lon="4.42693">
        <ele>277</ele>
        <time>2013-12-04T13:41:09Z</time>
      </trkpt>
      <trkpt lat="44.64283" lon="4.42692">
        <ele>277</ele>
        <time>2013-12-04T13:41:10Z</time>
      </trkpt>
      <trkpt lat="44.64282" lon="4.4269">
        <ele>277.48</ele>
        <time>2013-12-04T13:41:11Z</time>
      </trkpt>
      <trkpt lat="44.64281" lon="4.42688">
        <ele>277.48</ele>
        <time>2013-12-04T13:41:12Z</time>
      </trkpt>
      <trkpt lat="44.64279" lon="4.42686">
        <ele>277.48</ele>
        <time>2013-12-04T13:41:13Z</time>
      </trkpt>
      <trkpt lat="44.64278" lon="4.42684">
        <ele>277.48</ele>
        <time>2013-12-04T13:41:14Z</time>
      </trkpt>
      <trkpt lat="44.64276" lon="4.42682">
        <ele>277.96</ele>
        <time>2013-12-04T13:41:15Z</time>
      </trkpt>
      <trkpt lat="44.64275" lon="4.42681">
        <ele>277.96</ele>
        <time>2013-12-04T13:41:16Z</time>
      </trkpt>
      <trkpt lat="44.64273" lon="4.42679">
        <ele>277.96</ele>
        <time>2013-12-04T13:41:17Z</time>
      </trkpt>
      <trkpt lat="44.64271" lon="4.42678">
        <ele>278.44</ele>
        <time>2013-12-04T13:41:18Z</time>
      </trkpt>
      <trkpt lat="44.64251" lon="4.42653">
        <ele>279.4</ele>
        <time>2013-12-04T13:41:30Z</time>
      </trkpt>
      <trkpt lat="44.6424" lon="4.42625">
        <ele>280.36</ele>
        <time>2013-12-04T13:41:40Z</time>
      </trkpt>
      <trkpt lat="44.64233" lon="4.42608">
        <ele>280.84</ele>
        <time>2013-12-04T13:41:47Z</time>
      </trkpt>
      <trkpt lat="44.64234" lon="4.42606">
        <ele>280.84</ele>
        <time>2013-12-04T13:41:48Z</time>
      </trkpt>
      <trkpt lat="44.64234" lon="4.42603">
        <ele>281.32</ele>
        <time>2013-12-04T13:41:49Z</time>
      </trkpt>
      <trkpt lat="44.64234" lon="4.42601">
        <ele>281.32</ele>
        <time>2013-12-04T13:41:50Z</time>
      </trkpt>
      <trkpt lat="44.64234" lon="4.42597">
        <ele>281.32</ele>
        <time>2013-12-04T13:41:51Z</time>
      </trkpt>
      <trkpt lat="44.64234" lon="4.42594">
        <ele>281.8</ele>
        <time>2013-12-04T13:41:52Z</time>
      </trkpt>
      <trkpt lat="44.64234" lon="4.42591">
        <ele>281.8</ele>
        <time>2013-12-04T13:41:53Z</time>
      </trkpt>
      <trkpt lat="44.64234" lon="4.42588">
        <ele>281.8</ele>
        <time>2013-12-04T13:41:54Z</time>
      </trkpt>
      <trkpt lat="44.64234" lon="4.42586">
        <ele>282.28</ele>
        <time>2013-12-04T13:41:55Z</time>
      </trkpt>
      <trkpt lat="44.64237" lon="4.42575">
        <ele>282.77</ele>
        <time>2013-12-04T13:42:03Z</time>
      </trkpt>
      <trkpt lat="44.64238" lon="4.42573">
        <ele>282.77</ele>
        <time>2013-12-04T13:42:04Z</time>
      </trkpt>
      <trkpt lat="44.6424" lon="4.42572">
        <ele>282.77</ele>
        <time>2013-12-04T13:42:05Z</time>
      </trkpt>
      <trkpt lat="44.64241" lon="4.4257">
        <ele>282.77</ele>
        <time>2013-12-04T13:42:06Z</time>
      </trkpt>
      <trkpt lat="44.64243" lon="4.42568">
        <ele>283.25</ele>
        <time>2013-12-04T13:42:07Z</time>
      </trkpt>
      <trkpt lat="44.64244" lon="4.42567">
        <ele>283.25</ele>
        <time>2013-12-04T13:42:08Z</time>
      </trkpt>
      <trkpt lat="44.64246" lon="4.42565">
        <ele>283.25</ele>
        <time>2013-12-04T13:42:09Z</time>
      </trkpt>
      <trkpt lat="44.64251" lon="4.42559">
        <ele>284.21</ele>
        <time>2013-12-04T13:42:14Z</time>
      </trkpt>
      <trkpt lat="44.64255" lon="4.42554">
        <ele>284.21</ele>
        <time>2013-12-04T13:42:16Z</time>
      </trkpt>
      <trkpt lat="44.64277" lon="4.4253">
        <ele>285.65</ele>
        <time>2013-12-04T13:42:28Z</time>
      </trkpt>
      <trkpt lat="44.64294" lon="4.42506">
        <ele>287.09</ele>
        <time>2013-12-04T13:42:38Z</time>
      </trkpt>
      <trkpt lat="44.64307" lon="4.42477">
        <ele>288.53</ele>
        <time>2013-12-04T13:42:48Z</time>
      </trkpt>
      <trkpt lat="44.64307" lon="4.42475">
        <ele>288.53</ele>
        <time>2013-12-04T13:42:49Z</time>
      </trkpt>
      <trkpt lat="44.64311" lon="4.42461">
        <ele>288.53</ele>
        <time>2013-12-04T13:42:55Z</time>
      </trkpt>
      <trkpt lat="44.64312" lon="4.42459">
        <ele>289.01</ele>
        <time>2013-12-04T13:42:56Z</time>
      </trkpt>
      <trkpt lat="44.64313" lon="4.42457">
        <ele>289.01</ele>
        <time>2013-12-04T13:42:57Z</time>
      </trkpt>
      <trkpt lat="44.64314" lon="4.42454">
        <ele>289.49</ele>
        <time>2013-12-04T13:42:58Z</time>
      </trkpt>
      <trkpt lat="44.64315" lon="4.42451">
        <ele>289.49</ele>
        <time>2013-12-04T13:42:59Z</time>
      </trkpt>
      <trkpt lat="44.64327" lon="4.42425">
        <ele>290.46</ele>
        <time>2013-12-04T13:43:10Z</time>
      </trkpt>
      <trkpt lat="44.64327" lon="4.4242">
        <ele>290.94</ele>
        <time>2013-12-04T13:43:12Z</time>
      </trkpt>
      <trkpt lat="44.64326" lon="4.42419">
        <ele>291.42</ele>
        <time>2013-12-04T13:43:14Z</time>
      </trkpt>
      <trkpt lat="44.64322" lon="4.42419">
        <ele>291.9</ele>
        <time>2013-12-04T13:43:20Z</time>
      </trkpt>
      <trkpt lat="44.64321" lon="4.42419">
        <ele>291.9</ele>
        <time>2013-12-04T13:43:21Z</time>
      </trkpt>
      <trkpt lat="44.6432" lon="4.42419">
        <ele>291.9</ele>
        <time>2013-12-04T13:43:22Z</time>
      </trkpt>
      <trkpt lat="44.64308" lon="4.42424">
        <ele>293.34</ele>
        <time>2013-12-04T13:43:31Z</time>
      </trkpt>
      <trkpt lat="44.64299" lon="4.42422">
        <ele>293.82</ele>
        <time>2013-12-04T13:43:36Z</time>
      </trkpt>
      <trkpt lat="44.64297" lon="4.42422">
        <ele>293.82</ele>
        <time>2013-12-04T13:43:37Z</time>
      </trkpt>
      <trkpt lat="44.64295" lon="4.42421">
        <ele>293.82</ele>
        <time>2013-12-04T13:43:38Z</time>
      </trkpt>
      <trkpt lat="44.64277" lon="4.42413">
        <ele>295.26</ele>
        <time>2013-12-04T13:43:49Z</time>
      </trkpt>
      <trkpt lat="44.6427" lon="4.4241">
        <ele>295.74</ele>
        <time>2013-12-04T13:43:53Z</time>
      </trkpt>
      <trkpt lat="44.64266" lon="4.4241">
        <ele>296.22</ele>
        <time>2013-12-04T13:43:55Z</time>
      </trkpt>
      <trkpt lat="44.64253" lon="4.42401">
        <ele>297.18</ele>
        <time>2013-12-04T13:44:02Z</time>
      </trkpt>
      <trkpt lat="44.64251" lon="4.42399">
        <ele>297.18</ele>
        <time>2013-12-04T13:44:03Z</time>
      </trkpt>
      <trkpt lat="44.64249" lon="4.42398">
        <ele>297.67</ele>
        <time>2013-12-04T13:44:04Z</time>
      </trkpt>
      <trkpt lat="44.64248" lon="4.42396">
        <ele>297.67</ele>
        <time>2013-12-04T13:44:05Z</time>
      </trkpt>
      <trkpt lat="44.64246" lon="4.42395">
        <ele>297.67</ele>
        <time>2013-12-04T13:44:06Z</time>
      </trkpt>
      <trkpt lat="44.64245" lon="4.42393">
        <ele>298.15</ele>
        <time>2013-12-04T13:44:07Z</time>
      </trkpt>
      <trkpt lat="44.64233" lon="4.42371">
        <ele>300.07</ele>
        <time>2013-12-04T13:44:18Z</time>
      </trkpt>
      <trkpt lat="44.64232" lon="4.42369">
        <ele>300.07</ele>
        <time>2013-12-04T13:44:19Z</time>
      </trkpt>
      <trkpt lat="44.64231" lon="4.42366">
        <ele>300.07</ele>
        <time>2013-12-04T13:44:20Z</time>
      </trkpt>
      <trkpt lat="44.64218" lon="4.42336">
        <ele>301.99</ele>
        <time>2013-12-04T13:44:32Z</time>
      </trkpt>
      <trkpt lat="44.64216" lon="4.42323">
        <ele>302.95</ele>
        <time>2013-12-04T13:44:37Z</time>
      </trkpt>
      <trkpt lat="44.64214" lon="4.42321">
        <ele>302.95</ele>
        <time>2013-12-04T13:44:38Z</time>
      </trkpt>
      <trkpt lat="44.64214" lon="4.42317">
        <ele>302.95</ele>
        <time>2013-12-04T13:44:39Z</time>
      </trkpt>
      <trkpt lat="44.64213" lon="4.42314">
        <ele>303.43</ele>
        <time>2013-12-04T13:44:40Z</time>
      </trkpt>
      <trkpt lat="44.64213" lon="4.42312">
        <ele>303.43</ele>
        <time>2013-12-04T13:44:41Z</time>
      </trkpt>
      <trkpt lat="44.64214" lon="4.42307">
        <ele>303.43</ele>
        <time>2013-12-04T13:44:42Z</time>
      </trkpt>
      <trkpt lat="44.64215" lon="4.42304">
        <ele>303.91</ele>
        <time>2013-12-04T13:44:43Z</time>
      </trkpt>
      <trkpt lat="44.64216" lon="4.42301">
        <ele>303.91</ele>
        <time>2013-12-04T13:44:44Z</time>
      </trkpt>
      <trkpt lat="44.64217" lon="4.42299">
        <ele>303.91</ele>
        <time>2013-12-04T13:44:45Z</time>
      </trkpt>
      <trkpt lat="44.64219" lon="4.42298">
        <ele>303.91</ele>
        <time>2013-12-04T13:44:46Z</time>
      </trkpt>
      <trkpt lat="44.6422" lon="4.42299">
        <ele>304.39</ele>
        <time>2013-12-04T13:44:47Z</time>
      </trkpt>
      <trkpt lat="44.64222" lon="4.42298">
        <ele>304.39</ele>
        <time>2013-12-04T13:44:49Z</time>
      </trkpt>
      <trkpt lat="44.64223" lon="4.42298">
        <ele>304.88</ele>
        <time>2013-12-04T13:44:50Z</time>
      </trkpt>
      <trkpt lat="44.64226" lon="4.42298">
        <ele>305.84</ele>
        <time>2013-12-04T13:45:03Z</time>
      </trkpt>
      <trkpt lat="44.64226" lon="4.42298">
        <ele>304.88</ele>
        <time>2013-12-04T13:45:23Z</time>
      </trkpt>
      <trkpt lat="44.64224" lon="4.42295">
        <ele>304.88</ele>
        <time>2013-12-04T13:45:43Z</time>
      </trkpt>
      <trkpt lat="44.64224" lon="4.42295">
        <ele>304.88</ele>
        <time>2013-12-04T13:46:10Z</time>
      </trkpt>
      <trkpt lat="44.64222" lon="4.42294">
        <ele>304.88</ele>
        <time>2013-12-04T13:46:35Z</time>
      </trkpt>
      <trkpt lat="44.64223" lon="4.42293">
        <ele>304.88</ele>
        <time>2013-12-04T13:47:05Z</time>
      </trkpt>
      <trkpt lat="44.64223" lon="4.42293">
        <ele>304.88</ele>
        <time>2013-12-04T13:47:31Z</time>
      </trkpt>
      <trkpt lat="44.64229" lon="4.42292">
        <ele>305.84</ele>
        <time>2013-12-04T13:47:51Z</time>
      </trkpt>
      <trkpt lat="44.64231" lon="4.42294">
        <ele>305.84</ele>
        <time>2013-12-04T13:47:52Z</time>
      </trkpt>
      <trkpt lat="44.64233" lon="4.42295">
        <ele>305.84</ele>
        <time>2013-12-04T13:47:53Z</time>
      </trkpt>
      <trkpt lat="44.64235" lon="4.42296">
        <ele>306.32</ele>
        <time>2013-12-04T13:47:54Z</time>
      </trkpt>
      <trkpt lat="44.64237" lon="4.42297">
        <ele>306.32</ele>
        <time>2013-12-04T13:47:55Z</time>
      </trkpt>
      <trkpt lat="44.64239" lon="4.42298">
        <ele>306.8</ele>
        <time>2013-12-04T13:47:56Z</time>
      </trkpt>
      <trkpt lat="44.64241" lon="4.42299">
        <ele>306.8</ele>
        <time>2013-12-04T13:47:57Z</time>
      </trkpt>
      <trkpt lat="44.64264" lon="4.42317">
        <ele>307.76</ele>
        <time>2013-12-04T13:48:08Z</time>
      </trkpt>
      <trkpt lat="44.64269" lon="4.42319">
        <ele>308.24</ele>
        <time>2013-12-04T13:48:12Z</time>
      </trkpt>
      <trkpt lat="44.6427" lon="4.42319">
        <ele>308.24</ele>
        <time>2013-12-04T13:48:13Z</time>
      </trkpt>
      <trkpt lat="44.64272" lon="4.42318">
        <ele>308.72</ele>
        <time>2013-12-04T13:48:14Z</time>
      </trkpt>
      <trkpt lat="44.64274" lon="4.42319">
        <ele>308.72</ele>
        <time>2013-12-04T13:48:15Z</time>
      </trkpt>
      <trkpt lat="44.64276" lon="4.42319">
        <ele>309.2</ele>
        <time>2013-12-04T13:48:16Z</time>
      </trkpt>
      <trkpt lat="44.64295" lon="4.42318">
        <ele>309.68</ele>
        <time>2013-12-04T13:48:26Z</time>
      </trkpt>
      <trkpt lat="44.64318" lon="4.4231">
        <ele>311.6</ele>
        <time>2013-12-04T13:48:37Z</time>
      </trkpt>
      <trkpt lat="44.6434" lon="4.42307">
        <ele>313.53</ele>
        <time>2013-12-04T13:48:48Z</time>
      </trkpt>
      <trkpt lat="44.64365" lon="4.42298">
        <ele>314.97</ele>
        <time>2013-12-04T13:49:02Z</time>
      </trkpt>
      <trkpt lat="44.64372" lon="4.42297">
        <ele>314.97</ele>
        <time>2013-12-04T13:49:06Z</time>
      </trkpt>
      <trkpt lat="44.64374" lon="4.42296">
        <ele>314.97</ele>
        <time>2013-12-04T13:49:07Z</time>
      </trkpt>
      <trkpt lat="44.64376" lon="4.42296">
        <ele>315.45</ele>
        <time>2013-12-04T13:49:08Z</time>
      </trkpt>
      <trkpt lat="44.64378" lon="4.42297">
        <ele>315.45</ele>
        <time>2013-12-04T13:49:09Z</time>
      </trkpt>
      <trkpt lat="44.6438" lon="4.42297">
        <ele>315.45</ele>
        <time>2013-12-04T13:49:10Z</time>
      </trkpt>
      <trkpt lat="44.64382" lon="4.42296">
        <ele>315.93</ele>
        <time>2013-12-04T13:49:11Z</time>
      </trkpt>
      <trkpt lat="44.64385" lon="4.42296">
        <ele>316.41</ele>
        <time>2013-12-04T13:49:12Z</time>
      </trkpt>
      <trkpt lat="44.64409" lon="4.42284">
        <ele>317.85</ele>
        <time>2013-12-04T13:49:23Z</time>
      </trkpt>
      <trkpt lat="44.64441" lon="4.42293">
        <ele>319.3</ele>
        <time>2013-12-04T13:49:37Z</time>
      </trkpt>
      <trkpt lat="44.64455" lon="4.423">
        <ele>319.78</ele>
        <time>2013-12-04T13:49:44Z</time>
      </trkpt>
      <trkpt lat="44.64456" lon="4.42302">
        <ele>319.78</ele>
        <time>2013-12-04T13:49:45Z</time>
      </trkpt>
      <trkpt lat="44.64459" lon="4.42313">
        <ele>319.78</ele>
        <time>2013-12-04T13:49:56Z</time>
      </trkpt>
      <trkpt lat="44.64459" lon="4.42313">
        <ele>319.78</ele>
        <time>2013-12-04T13:50:17Z</time>
      </trkpt>
      <trkpt lat="44.64458" lon="4.42316">
        <ele>320.26</ele>
        <time>2013-12-04T13:50:18Z</time>
      </trkpt>
      <trkpt lat="44.64458" lon="4.42318">
        <ele>320.26</ele>
        <time>2013-12-04T13:50:19Z</time>
      </trkpt>
      <trkpt lat="44.64458" lon="4.42321">
        <ele>320.26</ele>
        <time>2013-12-04T13:50:20Z</time>
      </trkpt>
      <trkpt lat="44.64459" lon="4.42323">
        <ele>320.26</ele>
        <time>2013-12-04T13:50:21Z</time>
      </trkpt>
      <trkpt lat="44.64459" lon="4.42325">
        <ele>320.26</ele>
        <time>2013-12-04T13:50:22Z</time>
      </trkpt>
      <trkpt lat="44.6446" lon="4.42328">
        <ele>320.26</ele>
        <time>2013-12-04T13:50:23Z</time>
      </trkpt>
      <trkpt lat="44.64461" lon="4.4233">
        <ele>320.74</ele>
        <time>2013-12-04T13:50:24Z</time>
      </trkpt>
      <trkpt lat="44.64461" lon="4.42333">
        <ele>320.74</ele>
        <time>2013-12-04T13:50:25Z</time>
      </trkpt>
      <trkpt lat="44.6446" lon="4.42335">
        <ele>320.74</ele>
        <time>2013-12-04T13:50:26Z</time>
      </trkpt>
      <trkpt lat="44.64461" lon="4.42338">
        <ele>320.74</ele>
        <time>2013-12-04T13:50:27Z</time>
      </trkpt>
      <trkpt lat="44.64461" lon="4.4234">
        <ele>321.22</ele>
        <time>2013-12-04T13:50:28Z</time>
      </trkpt>
      <trkpt lat="44.64461" lon="4.42361">
        <ele>322.18</ele>
        <time>2013-12-04T13:50:41Z</time>
      </trkpt>
      <trkpt lat="44.64456" lon="4.42384">
        <ele>323.14</ele>
        <time>2013-12-04T13:50:58Z</time>
      </trkpt>
      <trkpt lat="44.64449" lon="4.42433">
        <ele>324.58</ele>
        <time>2013-12-04T13:51:12Z</time>
      </trkpt>
      <trkpt lat="44.64444" lon="4.4247">
        <ele>326.5</ele>
        <time>2013-12-04T13:51:25Z</time>
      </trkpt>
      <trkpt lat="44.64445" lon="4.42472">
        <ele>326.99</ele>
        <time>2013-12-04T13:51:27Z</time>
      </trkpt>
      <trkpt lat="44.64446" lon="4.42472">
        <ele>327.47</ele>
        <time>2013-12-04T13:51:29Z</time>
      </trkpt>
      <trkpt lat="44.64448" lon="4.42462">
        <ele>328.91</ele>
        <time>2013-12-04T13:51:39Z</time>
      </trkpt>
      <trkpt lat="44.64449" lon="4.42461">
        <ele>329.39</ele>
        <time>2013-12-04T13:51:40Z</time>
      </trkpt>
      <trkpt lat="44.64452" lon="4.42458">
        <ele>330.35</ele>
        <time>2013-12-04T13:51:44Z</time>
      </trkpt>
      <trkpt lat="44.64453" lon="4.42457">
        <ele>330.35</ele>
        <time>2013-12-04T13:51:45Z</time>
      </trkpt>
      <trkpt lat="44.64456" lon="4.42453">
        <ele>331.31</ele>
        <time>2013-12-04T13:51:49Z</time>
      </trkpt>
      <trkpt lat="44.64457" lon="4.42451">
        <ele>331.79</ele>
        <time>2013-12-04T13:51:50Z</time>
      </trkpt>
      <trkpt lat="44.64458" lon="4.42449">
        <ele>331.79</ele>
        <time>2013-12-04T13:51:51Z</time>
      </trkpt>
      <trkpt lat="44.64459" lon="4.42447">
        <ele>331.79</ele>
        <time>2013-12-04T13:51:52Z</time>
      </trkpt>
      <trkpt lat="44.64461" lon="4.42445">
        <ele>332.27</ele>
        <time>2013-12-04T13:51:53Z</time>
      </trkpt>
      <trkpt lat="44.64473" lon="4.42446">
        <ele>334.2</ele>
        <time>2013-12-04T13:52:06Z</time>
      </trkpt>
      <trkpt lat="44.6449" lon="4.42449">
        <ele>337.08</ele>
        <time>2013-12-04T13:52:18Z</time>
      </trkpt>
      <trkpt lat="44.64497" lon="4.42453">
        <ele>338.52</ele>
        <time>2013-12-04T13:52:23Z</time>
      </trkpt>
      <trkpt lat="44.64506" lon="4.42463">
        <ele>340.44</ele>
        <time>2013-12-04T13:52:36Z</time>
      </trkpt>
      <trkpt lat="44.64506" lon="4.42463">
        <ele>340.44</ele>
        <time>2013-12-04T13:52:58Z</time>
      </trkpt>
      <trkpt lat="44.64507" lon="4.42463">
        <ele>340.92</ele>
        <time>2013-12-04T13:53:19Z</time>
      </trkpt>
      <trkpt lat="44.64507" lon="4.42463">
        <ele>340.92</ele>
        <time>2013-12-04T13:53:47Z</time>
      </trkpt>
      <trkpt lat="44.64508" lon="4.42466">
        <ele>340.92</ele>
        <time>2013-12-04T13:54:02Z</time>
      </trkpt>
      <trkpt lat="44.64508" lon="4.42466">
        <ele>340.92</ele>
        <time>2013-12-04T13:54:32Z</time>
      </trkpt>
      <trkpt lat="44.64508" lon="4.42466">
        <ele>340.92</ele>
        <time>2013-12-04T13:54:54Z</time>
      </trkpt>
      <trkpt lat="44.6451" lon="4.42467">
        <ele>341.41</ele>
        <time>2013-12-04T13:55:17Z</time>
      </trkpt>
      <trkpt lat="44.64512" lon="4.42462">
        <ele>341.41</ele>
        <time>2013-12-04T13:55:21Z</time>
      </trkpt>
      <trkpt lat="44.64521" lon="4.4244">
        <ele>342.85</ele>
        <time>2013-12-04T13:55:33Z</time>
      </trkpt>
      <trkpt lat="44.64537" lon="4.4241">
        <ele>343.81</ele>
        <time>2013-12-04T13:55:46Z</time>
      </trkpt>
      <trkpt lat="44.64559" lon="4.42383">
        <ele>345.73</ele>
        <time>2013-12-04T13:55:58Z</time>
      </trkpt>
      <trkpt lat="44.64587" lon="4.42396">
        <ele>347.65</ele>
        <time>2013-12-04T13:56:10Z</time>
      </trkpt>
      <trkpt lat="44.64614" lon="4.42416">
        <ele>349.58</ele>
        <time>2013-12-04T13:56:23Z</time>
      </trkpt>
      <trkpt lat="44.6464" lon="4.42437">
        <ele>351.98</ele>
        <time>2013-12-04T13:56:36Z</time>
      </trkpt>
      <trkpt lat="44.64665" lon="4.42461">
        <ele>353.42</ele>
        <time>2013-12-04T13:56:50Z</time>
      </trkpt>
      <trkpt lat="44.64696" lon="4.42482">
        <ele>355.34</ele>
        <time>2013-12-04T13:57:03Z</time>
      </trkpt>
      <trkpt lat="44.64728" lon="4.42494">
        <ele>356.31</ele>
        <time>2013-12-04T13:57:16Z</time>
      </trkpt>
      <trkpt lat="44.64755" lon="4.42496">
        <ele>358.23</ele>
        <time>2013-12-04T13:57:28Z</time>
      </trkpt>
      <trkpt lat="44.64759" lon="4.42498">
        <ele>358.71</ele>
        <time>2013-12-04T13:57:30Z</time>
      </trkpt>
      <trkpt lat="44.64788" lon="4.42511">
        <ele>360.63</ele>
        <time>2013-12-04T13:57:43Z</time>
      </trkpt>
      <trkpt lat="44.64812" lon="4.42533">
        <ele>363.04</ele>
        <time>2013-12-04T13:57:55Z</time>
      </trkpt>
      <trkpt lat="44.64846" lon="4.42532">
        <ele>365.44</ele>
        <time>2013-12-04T13:58:08Z</time>
      </trkpt>
      <trkpt lat="44.64869" lon="4.42535">
        <ele>368.32</ele>
        <time>2013-12-04T13:58:22Z</time>
      </trkpt>
      <trkpt lat="44.64892" lon="4.42543">
        <ele>371.21</ele>
        <time>2013-12-04T13:58:37Z</time>
      </trkpt>
      <trkpt lat="44.64914" lon="4.42551">
        <ele>374.09</ele>
        <time>2013-12-04T13:58:51Z</time>
      </trkpt>
      <trkpt lat="44.64936" lon="4.42554">
        <ele>376.49</ele>
        <time>2013-12-04T13:59:05Z</time>
      </trkpt>
      <trkpt lat="44.64943" lon="4.42553">
        <ele>376.97</ele>
        <time>2013-12-04T13:59:09Z</time>
      </trkpt>
      <trkpt lat="44.64967" lon="4.42562">
        <ele>379.38</ele>
        <time>2013-12-04T13:59:24Z</time>
      </trkpt>
      <trkpt lat="44.64991" lon="4.42572">
        <ele>382.74</ele>
        <time>2013-12-04T13:59:37Z</time>
      </trkpt>
      <trkpt lat="44.65011" lon="4.42584">
        <ele>384.18</ele>
        <time>2013-12-04T13:59:48Z</time>
      </trkpt>
      <trkpt lat="44.6501" lon="4.42583">
        <ele>384.66</ele>
        <time>2013-12-04T13:59:57Z</time>
      </trkpt>
      <trkpt lat="44.65011" lon="4.42589">
        <ele>384.66</ele>
        <time>2013-12-04T14:00:05Z</time>
      </trkpt>
      <trkpt lat="44.65008" lon="4.4259">
        <ele>384.18</ele>
        <time>2013-12-04T14:00:10Z</time>
      </trkpt>
      <trkpt lat="44.65009" lon="4.42592">
        <ele>384.66</ele>
        <time>2013-12-04T14:00:21Z</time>
      </trkpt>
      <trkpt lat="44.65012" lon="4.42594">
        <ele>384.66</ele>
        <time>2013-12-04T14:00:25Z</time>
      </trkpt>
      <trkpt lat="44.65031" lon="4.42604">
        <ele>387.07</ele>
        <time>2013-12-04T14:00:42Z</time>
      </trkpt>
      <trkpt lat="44.65035" lon="4.42606">
        <ele>387.55</ele>
        <time>2013-12-04T14:00:45Z</time>
      </trkpt>
      <trkpt lat="44.6506" lon="4.42623">
        <ele>388.99</ele>
        <time>2013-12-04T14:01:01Z</time>
      </trkpt>
      <trkpt lat="44.65083" lon="4.42636">
        <ele>390.91</ele>
        <time>2013-12-04T14:01:15Z</time>
      </trkpt>
      <trkpt lat="44.65101" lon="4.42646">
        <ele>391.87</ele>
        <time>2013-12-04T14:01:29Z</time>
      </trkpt>
      <trkpt lat="44.6513" lon="4.4267">
        <ele>394.28</ele>
        <time>2013-12-04T14:01:43Z</time>
      </trkpt>
      <trkpt lat="44.65154" lon="4.42685">
        <ele>396.2</ele>
        <time>2013-12-04T14:01:56Z</time>
      </trkpt>
      <trkpt lat="44.65179" lon="4.4269">
        <ele>398.12</ele>
        <time>2013-12-04T14:02:09Z</time>
      </trkpt>
      <trkpt lat="44.65201" lon="4.42695">
        <ele>401.01</ele>
        <time>2013-12-04T14:02:22Z</time>
      </trkpt>
      <trkpt lat="44.65209" lon="4.427">
        <ele>401.97</ele>
        <time>2013-12-04T14:02:26Z</time>
      </trkpt>
      <trkpt lat="44.65216" lon="4.427">
        <ele>402.45</ele>
        <time>2013-12-04T14:02:29Z</time>
      </trkpt>
      <trkpt lat="44.65218" lon="4.42699">
        <ele>402.45</ele>
        <time>2013-12-04T14:02:32Z</time>
      </trkpt>
      <trkpt lat="44.652" lon="4.4268">
        <ele>403.89</ele>
        <time>2013-12-04T14:02:42Z</time>
      </trkpt>
      <trkpt lat="44.6519" lon="4.42646">
        <ele>403.89</ele>
        <time>2013-12-04T14:02:52Z</time>
      </trkpt>
      <trkpt lat="44.65191" lon="4.42643">
        <ele>403.89</ele>
        <time>2013-12-04T14:02:53Z</time>
      </trkpt>
      <trkpt lat="44.65202" lon="4.42637">
        <ele>404.85</ele>
        <time>2013-12-04T14:03:00Z</time>
      </trkpt>
      <trkpt lat="44.65207" lon="4.42639">
        <ele>405.33</ele>
        <time>2013-12-04T14:03:02Z</time>
      </trkpt>
      <trkpt lat="44.65217" lon="4.42639">
        <ele>405.81</ele>
        <time>2013-12-04T14:03:06Z</time>
      </trkpt>
      <trkpt lat="44.65245" lon="4.42635">
        <ele>407.74</ele>
        <time>2013-12-04T14:03:19Z</time>
      </trkpt>
      <trkpt lat="44.6527" lon="4.42645">
        <ele>409.18</ele>
        <time>2013-12-04T14:03:32Z</time>
      </trkpt>
      <trkpt lat="44.65286" lon="4.42643">
        <ele>410.62</ele>
        <time>2013-12-04T14:03:40Z</time>
      </trkpt>
      <trkpt lat="44.65292" lon="4.42643">
        <ele>411.1</ele>
        <time>2013-12-04T14:03:44Z</time>
      </trkpt>
      <trkpt lat="44.65297" lon="4.42642">
        <ele>411.1</ele>
        <time>2013-12-04T14:03:47Z</time>
      </trkpt>
      <trkpt lat="44.65307" lon="4.42654">
        <ele>412.06</ele>
        <time>2013-12-04T14:03:59Z</time>
      </trkpt>
      <trkpt lat="44.65307" lon="4.42654">
        <ele>412.06</ele>
        <time>2013-12-04T14:04:20Z</time>
      </trkpt>
      <trkpt lat="44.65307" lon="4.42654">
        <ele>412.06</ele>
        <time>2013-12-04T14:04:49Z</time>
      </trkpt>
      <trkpt lat="44.65307" lon="4.42654">
        <ele>411.58</ele>
        <time>2013-12-04T14:05:15Z</time>
      </trkpt>
      <trkpt lat="44.65307" lon="4.42655">
        <ele>412.06</ele>
        <time>2013-12-04T14:05:39Z</time>
      </trkpt>
      <trkpt lat="44.65308" lon="4.42656">
        <ele>412.06</ele>
        <time>2013-12-04T14:06:00Z</time>
      </trkpt>
      <trkpt lat="44.65319" lon="4.42657">
        <ele>412.54</ele>
        <time>2013-12-04T14:06:06Z</time>
      </trkpt>
      <trkpt lat="44.65327" lon="4.42657">
        <ele>413.02</ele>
        <time>2013-12-04T14:06:13Z</time>
      </trkpt>
      <trkpt lat="44.65353" lon="4.42645">
        <ele>413.5</ele>
        <time>2013-12-04T14:06:26Z</time>
      </trkpt>
      <trkpt lat="44.65391" lon="4.42626">
        <ele>412.54</ele>
        <time>2013-12-04T14:06:37Z</time>
      </trkpt>
      <trkpt lat="44.65433" lon="4.42606">
        <ele>412.54</ele>
        <time>2013-12-04T14:06:46Z</time>
      </trkpt>
      <trkpt lat="44.65469" lon="4.42591">
        <ele>414.47</ele>
        <time>2013-12-04T14:06:57Z</time>
      </trkpt>
      <trkpt lat="44.655" lon="4.42587">
        <ele>416.39</ele>
        <time>2013-12-04T14:07:08Z</time>
      </trkpt>
      <trkpt lat="44.65528" lon="4.42581">
        <ele>416.87</ele>
        <time>2013-12-04T14:07:17Z</time>
      </trkpt>
      <trkpt lat="44.65531" lon="4.42581">
        <ele>416.39</ele>
        <time>2013-12-04T14:07:18Z</time>
      </trkpt>
      <trkpt lat="44.65562" lon="4.42575">
        <ele>413.98</ele>
        <time>2013-12-04T14:07:28Z</time>
      </trkpt>
      <trkpt lat="44.65565" lon="4.42575">
        <ele>413.98</ele>
        <time>2013-12-04T14:07:29Z</time>
      </trkpt>
      <trkpt lat="44.65567" lon="4.42573">
        <ele>413.98</ele>
        <time>2013-12-04T14:07:30Z</time>
      </trkpt>
      <trkpt lat="44.65569" lon="4.42571">
        <ele>413.5</ele>
        <time>2013-12-04T14:07:31Z</time>
      </trkpt>
      <trkpt lat="44.65571" lon="4.42568">
        <ele>413.5</ele>
        <time>2013-12-04T14:07:32Z</time>
      </trkpt>
      <trkpt lat="44.65574" lon="4.42566">
        <ele>413.5</ele>
        <time>2013-12-04T14:07:33Z</time>
      </trkpt>
      <trkpt lat="44.65576" lon="4.42564">
        <ele>413.5</ele>
        <time>2013-12-04T14:07:34Z</time>
      </trkpt>
      <trkpt lat="44.65579" lon="4.42563">
        <ele>413.02</ele>
        <time>2013-12-04T14:07:35Z</time>
      </trkpt>
      <trkpt lat="44.65581" lon="4.42562">
        <ele>413.02</ele>
        <time>2013-12-04T14:07:36Z</time>
      </trkpt>
      <trkpt lat="44.65586" lon="4.42558">
        <ele>413.02</ele>
        <time>2013-12-04T14:07:38Z</time>
      </trkpt>
      <trkpt lat="44.65588" lon="4.42554">
        <ele>412.54</ele>
        <time>2013-12-04T14:07:39Z</time>
      </trkpt>
      <trkpt lat="44.6559" lon="4.42551">
        <ele>412.54</ele>
        <time>2013-12-04T14:07:40Z</time>
      </trkpt>
      <trkpt lat="44.6562" lon="4.42522">
        <ele>410.14</ele>
        <time>2013-12-04T14:07:51Z</time>
      </trkpt>
      <trkpt lat="44.6565" lon="4.42501">
        <ele>408.22</ele>
        <time>2013-12-04T14:08:03Z</time>
      </trkpt>
      <trkpt lat="44.65655" lon="4.42495">
        <ele>408.7</ele>
        <time>2013-12-04T14:08:23Z</time>
      </trkpt>
      <trkpt lat="44.65676" lon="4.42476">
        <ele>406.77</ele>
        <time>2013-12-04T14:08:30Z</time>
      </trkpt>
      <trkpt lat="44.65694" lon="4.42464">
        <ele>406.29</ele>
        <time>2013-12-04T14:08:35Z</time>
      </trkpt>
      <trkpt lat="44.65722" lon="4.42441">
        <ele>406.77</ele>
        <time>2013-12-04T14:08:47Z</time>
      </trkpt>
      <trkpt lat="44.65722" lon="4.42441">
        <ele>406.77</ele>
        <time>2013-12-04T14:09:03Z</time>
      </trkpt>
      <trkpt lat="44.65723" lon="4.42438">
        <ele>406.77</ele>
        <time>2013-12-04T14:09:12Z</time>
      </trkpt>
      <trkpt lat="44.65723" lon="4.42435">
        <ele>406.77</ele>
        <time>2013-12-04T14:09:13Z</time>
      </trkpt>
      <trkpt lat="44.65725" lon="4.42432">
        <ele>406.77</ele>
        <time>2013-12-04T14:09:14Z</time>
      </trkpt>
      <trkpt lat="44.65726" lon="4.42429">
        <ele>406.77</ele>
        <time>2013-12-04T14:09:15Z</time>
      </trkpt>
      <trkpt lat="44.65728" lon="4.42426">
        <ele>406.77</ele>
        <time>2013-12-04T14:09:16Z</time>
      </trkpt>
      <trkpt lat="44.6573" lon="4.42423">
        <ele>406.77</ele>
        <time>2013-12-04T14:09:17Z</time>
      </trkpt>
      <trkpt lat="44.65731" lon="4.4242">
        <ele>406.77</ele>
        <time>2013-12-04T14:09:18Z</time>
      </trkpt>
      <trkpt lat="44.65733" lon="4.42416">
        <ele>406.77</ele>
        <time>2013-12-04T14:09:19Z</time>
      </trkpt>
      <trkpt lat="44.65733" lon="4.42412">
        <ele>406.77</ele>
        <time>2013-12-04T14:09:20Z</time>
      </trkpt>
      <trkpt lat="44.65734" lon="4.42409">
        <ele>406.77</ele>
        <time>2013-12-04T14:09:21Z</time>
      </trkpt>
      <trkpt lat="44.65735" lon="4.42405">
        <ele>406.77</ele>
        <time>2013-12-04T14:09:22Z</time>
      </trkpt>
      <trkpt lat="44.65738" lon="4.42398">
        <ele>406.77</ele>
        <time>2013-12-04T14:09:24Z</time>
      </trkpt>
      <trkpt lat="44.65762" lon="4.42378">
        <ele>408.7</ele>
        <time>2013-12-04T14:09:36Z</time>
      </trkpt>
      <trkpt lat="44.65779" lon="4.42364">
        <ele>410.62</ele>
        <time>2013-12-04T14:09:46Z</time>
      </trkpt>
      <trkpt lat="44.65781" lon="4.42361">
        <ele>410.62</ele>
        <time>2013-12-04T14:09:47Z</time>
      </trkpt>
      <trkpt lat="44.65782" lon="4.42359">
        <ele>410.62</ele>
        <time>2013-12-04T14:09:48Z</time>
      </trkpt>
      <trkpt lat="44.65798" lon="4.42344">
        <ele>412.06</ele>
        <time>2013-12-04T14:09:57Z</time>
      </trkpt>
      <trkpt lat="44.65823" lon="4.42335">
        <ele>413.5</ele>
        <time>2013-12-04T14:10:11Z</time>
      </trkpt>
      <trkpt lat="44.65829" lon="4.42338">
        <ele>413.98</ele>
        <time>2013-12-04T14:10:14Z</time>
      </trkpt>
      <trkpt lat="44.65831" lon="4.42339">
        <ele>413.98</ele>
        <time>2013-12-04T14:10:15Z</time>
      </trkpt>
      <trkpt lat="44.65856" lon="4.42346">
        <ele>415.43</ele>
        <time>2013-12-04T14:10:27Z</time>
      </trkpt>
      <trkpt lat="44.65876" lon="4.42352">
        <ele>416.87</ele>
        <time>2013-12-04T14:10:38Z</time>
      </trkpt>
      <trkpt lat="44.65877" lon="4.42352">
        <ele>416.87</ele>
        <time>2013-12-04T14:10:39Z</time>
      </trkpt>
      <trkpt lat="44.65889" lon="4.42352">
        <ele>418.31</ele>
        <time>2013-12-04T14:10:46Z</time>
      </trkpt>
      <trkpt lat="44.65891" lon="4.42352">
        <ele>418.31</ele>
        <time>2013-12-04T14:10:47Z</time>
      </trkpt>
      <trkpt lat="44.65894" lon="4.42351">
        <ele>418.79</ele>
        <time>2013-12-04T14:10:48Z</time>
      </trkpt>
      <trkpt lat="44.65897" lon="4.42351">
        <ele>419.27</ele>
        <time>2013-12-04T14:10:49Z</time>
      </trkpt>
      <trkpt lat="44.65899" lon="4.42352">
        <ele>419.75</ele>
        <time>2013-12-04T14:10:50Z</time>
      </trkpt>
      <trkpt lat="44.65903" lon="4.42352">
        <ele>419.27</ele>
        <time>2013-12-04T14:10:52Z</time>
      </trkpt>
      <trkpt lat="44.65926" lon="4.42342">
        <ele>420.23</ele>
        <time>2013-12-04T14:11:03Z</time>
      </trkpt>
      <trkpt lat="44.65928" lon="4.42342">
        <ele>420.71</ele>
        <time>2013-12-04T14:11:04Z</time>
      </trkpt>
      <trkpt lat="44.65948" lon="4.4235">
        <ele>422.64</ele>
        <time>2013-12-04T14:11:14Z</time>
      </trkpt>
      <trkpt lat="44.6595" lon="4.42349">
        <ele>422.64</ele>
        <time>2013-12-04T14:11:15Z</time>
      </trkpt>
      <trkpt lat="44.65953" lon="4.4235">
        <ele>423.12</ele>
        <time>2013-12-04T14:11:16Z</time>
      </trkpt>
      <trkpt lat="44.65956" lon="4.4235">
        <ele>423.12</ele>
        <time>2013-12-04T14:11:18Z</time>
      </trkpt>
      <trkpt lat="44.65958" lon="4.4235">
        <ele>423.6</ele>
        <time>2013-12-04T14:11:19Z</time>
      </trkpt>
      <trkpt lat="44.65961" lon="4.42352">
        <ele>424.08</ele>
        <time>2013-12-04T14:11:20Z</time>
      </trkpt>
      <trkpt lat="44.65963" lon="4.42354">
        <ele>424.08</ele>
        <time>2013-12-04T14:11:21Z</time>
      </trkpt>
      <trkpt lat="44.65965" lon="4.42356">
        <ele>424.08</ele>
        <time>2013-12-04T14:11:22Z</time>
      </trkpt>
      <trkpt lat="44.65968" lon="4.42358">
        <ele>424.08</ele>
        <time>2013-12-04T14:11:23Z</time>
      </trkpt>
      <trkpt lat="44.6597" lon="4.42361">
        <ele>424.08</ele>
        <time>2013-12-04T14:11:24Z</time>
      </trkpt>
      <trkpt lat="44.65973" lon="4.42363">
        <ele>424.08</ele>
        <time>2013-12-04T14:11:25Z</time>
      </trkpt>
      <trkpt lat="44.65975" lon="4.42364">
        <ele>424.56</ele>
        <time>2013-12-04T14:11:26Z</time>
      </trkpt>
      <trkpt lat="44.65978" lon="4.42365">
        <ele>424.56</ele>
        <time>2013-12-04T14:11:27Z</time>
      </trkpt>
      <trkpt lat="44.66011" lon="4.42372">
        <ele>424.08</ele>
        <time>2013-12-04T14:11:40Z</time>
      </trkpt>
      <trkpt lat="44.66046" lon="4.42404">
        <ele>423.12</ele>
        <time>2013-12-04T14:11:53Z</time>
      </trkpt>
      <trkpt lat="44.66052" lon="4.42413">
        <ele>422.64</ele>
        <time>2013-12-04T14:11:55Z</time>
      </trkpt>
      <trkpt lat="44.66053" lon="4.42417">
        <ele>422.64</ele>
        <time>2013-12-04T14:11:56Z</time>
      </trkpt>
      <trkpt lat="44.66057" lon="4.42428">
        <ele>422.64</ele>
        <time>2013-12-04T14:11:57Z</time>
      </trkpt>
      <trkpt lat="44.66057" lon="4.42433">
        <ele>422.64</ele>
        <time>2013-12-04T14:11:58Z</time>
      </trkpt>
      <trkpt lat="44.66055" lon="4.42436">
        <ele>422.64</ele>
        <time>2013-12-04T14:11:59Z</time>
      </trkpt>
      <trkpt lat="44.66054" lon="4.42439">
        <ele>422.64</ele>
        <time>2013-12-04T14:12:00Z</time>
      </trkpt>
      <trkpt lat="44.66053" lon="4.42441">
        <ele>422.64</ele>
        <time>2013-12-04T14:12:01Z</time>
      </trkpt>
      <trkpt lat="44.66049" lon="4.42445">
        <ele>422.64</ele>
        <time>2013-12-04T14:12:12Z</time>
      </trkpt>
      <trkpt lat="44.66049" lon="4.42445">
        <ele>422.64</ele>
        <time>2013-12-04T14:12:37Z</time>
      </trkpt>
      <trkpt lat="44.66048" lon="4.42445">
        <ele>422.64</ele>
        <time>2013-12-04T14:12:45Z</time>
      </trkpt>
      <trkpt lat="44.66046" lon="4.42448">
        <ele>423.12</ele>
        <time>2013-12-04T14:12:47Z</time>
      </trkpt>
      <trkpt lat="44.66029" lon="4.42474">
        <ele>423.6</ele>
        <time>2013-12-04T14:12:59Z</time>
      </trkpt>
      <trkpt lat="44.66019" lon="4.42502">
        <ele>425.52</ele>
        <time>2013-12-04T14:13:11Z</time>
      </trkpt>
      <trkpt lat="44.6602" lon="4.42505">
        <ele>426</ele>
        <time>2013-12-04T14:13:12Z</time>
      </trkpt>
      <trkpt lat="44.66037" lon="4.42536">
        <ele>426.48</ele>
        <time>2013-12-04T14:13:25Z</time>
      </trkpt>
      <trkpt lat="44.66046" lon="4.42555">
        <ele>426.48</ele>
        <time>2013-12-04T14:13:32Z</time>
      </trkpt>
      <trkpt lat="44.66047" lon="4.42559">
        <ele>426.48</ele>
        <time>2013-12-04T14:13:33Z</time>
      </trkpt>
      <trkpt lat="44.66048" lon="4.42563">
        <ele>426.48</ele>
        <time>2013-12-04T14:13:34Z</time>
      </trkpt>
      <trkpt lat="44.6605" lon="4.42566">
        <ele>426</ele>
        <time>2013-12-04T14:13:35Z</time>
      </trkpt>
      <trkpt lat="44.66051" lon="4.4257">
        <ele>426</ele>
        <time>2013-12-04T14:13:36Z</time>
      </trkpt>
      <trkpt lat="44.66052" lon="4.42573">
        <ele>426</ele>
        <time>2013-12-04T14:13:37Z</time>
      </trkpt>
      <trkpt lat="44.66053" lon="4.42576">
        <ele>426.48</ele>
        <time>2013-12-04T14:13:38Z</time>
      </trkpt>
      <trkpt lat="44.66054" lon="4.42579">
        <ele>426.48</ele>
        <time>2013-12-04T14:13:39Z</time>
      </trkpt>
      <trkpt lat="44.66056" lon="4.42583">
        <ele>426.48</ele>
        <time>2013-12-04T14:13:40Z</time>
      </trkpt>
      <trkpt lat="44.66074" lon="4.42624">
        <ele>426.96</ele>
        <time>2013-12-04T14:13:52Z</time>
      </trkpt>
      <trkpt lat="44.66093" lon="4.42671">
        <ele>426.48</ele>
        <time>2013-12-04T14:14:05Z</time>
      </trkpt>
      <trkpt lat="44.66115" lon="4.42724">
        <ele>426.48</ele>
        <time>2013-12-04T14:14:17Z</time>
      </trkpt>
      <trkpt lat="44.66138" lon="4.42777">
        <ele>426.48</ele>
        <time>2013-12-04T14:14:29Z</time>
      </trkpt>
      <trkpt lat="44.66155" lon="4.42818">
        <ele>426</ele>
        <time>2013-12-04T14:14:41Z</time>
      </trkpt>
      <trkpt lat="44.66179" lon="4.42865">
        <ele>426.48</ele>
        <time>2013-12-04T14:14:52Z</time>
      </trkpt>
      <trkpt lat="44.66201" lon="4.42912">
        <ele>426.96</ele>
        <time>2013-12-04T14:15:04Z</time>
      </trkpt>
      <trkpt lat="44.66221" lon="4.42957">
        <ele>428.4</ele>
        <time>2013-12-04T14:15:15Z</time>
      </trkpt>
      <trkpt lat="44.66237" lon="4.42991">
        <ele>429.85</ele>
        <time>2013-12-04T14:15:24Z</time>
      </trkpt>
      <trkpt lat="44.6624" lon="4.42996">
        <ele>429.85</ele>
        <time>2013-12-04T14:15:25Z</time>
      </trkpt>
      <trkpt lat="44.66244" lon="4.43006">
        <ele>429.85</ele>
        <time>2013-12-04T14:15:27Z</time>
      </trkpt>
      <trkpt lat="44.66247" lon="4.43014">
        <ele>430.33</ele>
        <time>2013-12-04T14:15:28Z</time>
      </trkpt>
      <trkpt lat="44.66248" lon="4.4302">
        <ele>430.33</ele>
        <time>2013-12-04T14:15:29Z</time>
      </trkpt>
      <trkpt lat="44.66261" lon="4.43081">
        <ele>433.21</ele>
        <time>2013-12-04T14:15:43Z</time>
      </trkpt>
      <trkpt lat="44.66266" lon="4.43118">
        <ele>436.58</ele>
        <time>2013-12-04T14:15:53Z</time>
      </trkpt>
      <trkpt lat="44.6627" lon="4.43147">
        <ele>439.94</ele>
        <time>2013-12-04T14:16:03Z</time>
      </trkpt>
      <trkpt lat="44.66269" lon="4.43163">
        <ele>441.38</ele>
        <time>2013-12-04T14:16:10Z</time>
      </trkpt>
      <trkpt lat="44.6627" lon="4.43166">
        <ele>441.86</ele>
        <time>2013-12-04T14:16:11Z</time>
      </trkpt>
      <trkpt lat="44.6627" lon="4.43169">
        <ele>441.86</ele>
        <time>2013-12-04T14:16:12Z</time>
      </trkpt>
      <trkpt lat="44.66271" lon="4.43171">
        <ele>442.34</ele>
        <time>2013-12-04T14:16:13Z</time>
      </trkpt>
      <trkpt lat="44.66272" lon="4.43189">
        <ele>443.31</ele>
        <time>2013-12-04T14:16:20Z</time>
      </trkpt>
      <trkpt lat="44.66272" lon="4.43192">
        <ele>443.31</ele>
        <time>2013-12-04T14:16:21Z</time>
      </trkpt>
      <trkpt lat="44.66268" lon="4.43223">
        <ele>443.31</ele>
        <time>2013-12-04T14:16:32Z</time>
      </trkpt>
      <trkpt lat="44.66265" lon="4.43238">
        <ele>442.82</ele>
        <time>2013-12-04T14:16:44Z</time>
      </trkpt>
      <trkpt lat="44.66265" lon="4.43238">
        <ele>442.82</ele>
        <time>2013-12-04T14:17:11Z</time>
      </trkpt>
      <trkpt lat="44.66264" lon="4.4324">
        <ele>442.82</ele>
        <time>2013-12-04T14:17:42Z</time>
      </trkpt>
      <trkpt lat="44.66262" lon="4.4324">
        <ele>442.34</ele>
        <time>2013-12-04T14:18:05Z</time>
      </trkpt>
      <trkpt lat="44.66258" lon="4.43242">
        <ele>442.82</ele>
        <time>2013-12-04T14:18:25Z</time>
      </trkpt>
      <trkpt lat="44.66258" lon="4.43242">
        <ele>442.82</ele>
        <time>2013-12-04T14:18:57Z</time>
      </trkpt>
      <trkpt lat="44.66258" lon="4.43245">
        <ele>442.34</ele>
        <time>2013-12-04T14:19:27Z</time>
      </trkpt>
      <trkpt lat="44.66258" lon="4.43247">
        <ele>442.82</ele>
        <time>2013-12-04T14:19:28Z</time>
      </trkpt>
      <trkpt lat="44.66258" lon="4.4325">
        <ele>442.82</ele>
        <time>2013-12-04T14:19:29Z</time>
      </trkpt>
      <trkpt lat="44.66259" lon="4.43253">
        <ele>442.82</ele>
        <time>2013-12-04T14:19:30Z</time>
      </trkpt>
      <trkpt lat="44.66259" lon="4.43256">
        <ele>442.82</ele>
        <time>2013-12-04T14:19:31Z</time>
      </trkpt>
      <trkpt lat="44.66261" lon="4.43259">
        <ele>442.82</ele>
        <time>2013-12-04T14:19:32Z</time>
      </trkpt>
      <trkpt lat="44.66262" lon="4.4326">
        <ele>442.82</ele>
        <time>2013-12-04T14:19:33Z</time>
      </trkpt>
      <trkpt lat="44.66286" lon="4.43288">
        <ele>442.82</ele>
        <time>2013-12-04T14:19:46Z</time>
      </trkpt>
      <trkpt lat="44.66305" lon="4.43335">
        <ele>441.38</ele>
        <time>2013-12-04T14:19:56Z</time>
      </trkpt>
      <trkpt lat="44.66339" lon="4.43389">
        <ele>440.42</ele>
        <time>2013-12-04T14:20:08Z</time>
      </trkpt>
      <trkpt lat="44.66353" lon="4.43404">
        <ele>439.94</ele>
        <time>2013-12-04T14:20:12Z</time>
      </trkpt>
      <trkpt lat="44.66356" lon="4.43409">
        <ele>439.94</ele>
        <time>2013-12-04T14:20:13Z</time>
      </trkpt>
      <trkpt lat="44.66365" lon="4.43423">
        <ele>439.46</ele>
        <time>2013-12-04T14:20:16Z</time>
      </trkpt>
      <trkpt lat="44.66396" lon="4.43473">
        <ele>437.54</ele>
        <time>2013-12-04T14:20:25Z</time>
      </trkpt>
      <trkpt lat="44.66405" lon="4.4349">
        <ele>437.54</ele>
        <time>2013-12-04T14:20:28Z</time>
      </trkpt>
      <trkpt lat="44.66443" lon="4.43565">
        <ele>437.06</ele>
        <time>2013-12-04T14:20:42Z</time>
      </trkpt>
      <trkpt lat="44.66452" lon="4.43586">
        <ele>437.06</ele>
        <time>2013-12-04T14:20:46Z</time>
      </trkpt>
      <trkpt lat="44.66454" lon="4.43591">
        <ele>437.06</ele>
        <time>2013-12-04T14:20:47Z</time>
      </trkpt>
      <trkpt lat="44.66478" lon="4.43654">
        <ele>438.02</ele>
        <time>2013-12-04T14:21:00Z</time>
      </trkpt>
      <trkpt lat="44.66487" lon="4.43675">
        <ele>439.46</ele>
        <time>2013-12-04T14:21:05Z</time>
      </trkpt>
      <trkpt lat="44.66501" lon="4.43703">
        <ele>441.86</ele>
        <time>2013-12-04T14:21:14Z</time>
      </trkpt>
      <trkpt lat="44.66526" lon="4.43738">
        <ele>444.27</ele>
        <time>2013-12-04T14:21:26Z</time>
      </trkpt>
      <trkpt lat="44.66552" lon="4.43763">
        <ele>446.19</ele>
        <time>2013-12-04T14:21:36Z</time>
      </trkpt>
      <trkpt lat="44.66573" lon="4.43785">
        <ele>448.59</ele>
        <time>2013-12-04T14:21:47Z</time>
      </trkpt>
      <trkpt lat="44.66599" lon="4.43808">
        <ele>450.52</ele>
        <time>2013-12-04T14:21:59Z</time>
      </trkpt>
      <trkpt lat="44.66617" lon="4.43842">
        <ele>451.48</ele>
        <time>2013-12-04T14:22:11Z</time>
      </trkpt>
      <trkpt lat="44.66642" lon="4.43879">
        <ele>450.52</ele>
        <time>2013-12-04T14:22:23Z</time>
      </trkpt>
      <trkpt lat="44.6667" lon="4.43914">
        <ele>448.11</ele>
        <time>2013-12-04T14:22:31Z</time>
      </trkpt>
      <trkpt lat="44.66695" lon="4.43936">
        <ele>444.75</ele>
        <time>2013-12-04T14:22:36Z</time>
      </trkpt>
      <trkpt lat="44.6672" lon="4.43958">
        <ele>441.38</ele>
        <time>2013-12-04T14:22:40Z</time>
      </trkpt>
      <trkpt lat="44.66727" lon="4.43966">
        <ele>441.38</ele>
        <time>2013-12-04T14:22:41Z</time>
      </trkpt>
      <trkpt lat="44.66786" lon="4.44042">
        <ele>438.98</ele>
        <time>2013-12-04T14:22:49Z</time>
      </trkpt>
      <trkpt lat="44.66836" lon="4.44089">
        <ele>437.54</ele>
        <time>2013-12-04T14:22:59Z</time>
      </trkpt>
      <trkpt lat="44.66866" lon="4.44112">
        <ele>438.5</ele>
        <time>2013-12-04T14:23:10Z</time>
      </trkpt>
      <trkpt lat="44.66886" lon="4.44121">
        <ele>439.94</ele>
        <time>2013-12-04T14:23:21Z</time>
      </trkpt>
      <trkpt lat="44.66886" lon="4.44122">
        <ele>439.46</ele>
        <time>2013-12-04T14:23:38Z</time>
      </trkpt>
      <trkpt lat="44.66886" lon="4.44123">
        <ele>439.46</ele>
        <time>2013-12-04T14:24:14Z</time>
      </trkpt>
      <trkpt lat="44.66886" lon="4.44123">
        <ele>439.94</ele>
        <time>2013-12-04T14:24:49Z</time>
      </trkpt>
      <trkpt lat="44.66886" lon="4.44123">
        <ele>439.46</ele>
        <time>2013-12-04T14:25:24Z</time>
      </trkpt>
      <trkpt lat="44.66886" lon="4.44123">
        <ele>439.94</ele>
        <time>2013-12-04T14:25:53Z</time>
      </trkpt>
      <trkpt lat="44.66887" lon="4.44123">
        <ele>439.94</ele>
        <time>2013-12-04T14:25:54Z</time>
      </trkpt>
      <trkpt lat="44.66903" lon="4.44112">
        <ele>441.38</ele>
        <time>2013-12-04T14:26:03Z</time>
      </trkpt>
      <trkpt lat="44.66903" lon="4.44111">
        <ele>441.38</ele>
        <time>2013-12-04T14:26:15Z</time>
      </trkpt>
      <trkpt lat="44.66905" lon="4.44111">
        <ele>441.38</ele>
        <time>2013-12-04T14:26:29Z</time>
      </trkpt>
      <trkpt lat="44.66904" lon="4.44114">
        <ele>441.38</ele>
        <time>2013-12-04T14:26:31Z</time>
      </trkpt>
      <trkpt lat="44.66903" lon="4.44115">
        <ele>441.38</ele>
        <time>2013-12-04T14:26:32Z</time>
      </trkpt>
      <trkpt lat="44.66902" lon="4.44116">
        <ele>441.38</ele>
        <time>2013-12-04T14:26:33Z</time>
      </trkpt>
      <trkpt lat="44.669" lon="4.44118">
        <ele>440.9</ele>
        <time>2013-12-04T14:26:35Z</time>
      </trkpt>
      <trkpt lat="44.66899" lon="4.44119">
        <ele>440.9</ele>
        <time>2013-12-04T14:26:36Z</time>
      </trkpt>
      <trkpt lat="44.66896" lon="4.4412">
        <ele>440.9</ele>
        <time>2013-12-04T14:26:39Z</time>
      </trkpt>
      <trkpt lat="44.66886" lon="4.44123">
        <ele>440.42</ele>
        <time>2013-12-04T14:26:49Z</time>
      </trkpt>
      <trkpt lat="44.66906" lon="4.4411">
        <ele>441.86</ele>
        <time>2013-12-04T14:36:03Z</time>
      </trkpt>
      <trkpt lat="44.66906" lon="4.44111">
        <ele>441.86</ele>
        <time>2013-12-04T14:36:04Z</time>
      </trkpt>
      <trkpt lat="44.66906" lon="4.44107">
        <ele>442.34</ele>
        <time>2013-12-04T14:36:16Z</time>
      </trkpt>
      <trkpt lat="44.66906" lon="4.44109">
        <ele>444.75</ele>
        <time>2013-12-04T14:36:34Z</time>
      </trkpt>
      <trkpt lat="44.66904" lon="4.44109">
        <ele>445.71</ele>
        <time>2013-12-04T14:37:00Z</time>
      </trkpt>
      <trkpt lat="44.66908" lon="4.44109">
        <ele>446.67</ele>
        <time>2013-12-04T14:37:19Z</time>
      </trkpt>
      <trkpt lat="44.66909" lon="4.44112">
        <ele>445.71</ele>
        <time>2013-12-04T14:37:46Z</time>
      </trkpt>
      <trkpt lat="44.66909" lon="4.44112">
        <ele>446.19</ele>
        <time>2013-12-04T14:37:53Z</time>
      </trkpt>
      <trkpt lat="44.66909" lon="4.4411">
        <ele>446.19</ele>
        <time>2013-12-04T14:37:57Z</time>
      </trkpt>
      <trkpt lat="44.66911" lon="4.44109">
        <ele>446.19</ele>
        <time>2013-12-04T14:37:59Z</time>
      </trkpt>
      <trkpt lat="44.66916" lon="4.44103">
        <ele>447.15</ele>
        <time>2013-12-04T14:38:03Z</time>
      </trkpt>
      <trkpt lat="44.66926" lon="4.44078">
        <ele>449.07</ele>
        <time>2013-12-04T14:38:15Z</time>
      </trkpt>
      <trkpt lat="44.66927" lon="4.4407">
        <ele>449.55</ele>
        <time>2013-12-04T14:38:18Z</time>
      </trkpt>
      <trkpt lat="44.66931" lon="4.44056">
        <ele>450.52</ele>
        <time>2013-12-04T14:38:24Z</time>
      </trkpt>
      <trkpt lat="44.6695" lon="4.44031">
        <ele>453.4</ele>
        <time>2013-12-04T14:38:36Z</time>
      </trkpt>
      <trkpt lat="44.6696" lon="4.44023">
        <ele>454.36</ele>
        <time>2013-12-04T14:38:42Z</time>
      </trkpt>
      <trkpt lat="44.66982" lon="4.44014">
        <ele>456.76</ele>
        <time>2013-12-04T14:38:56Z</time>
      </trkpt>
      <trkpt lat="44.66983" lon="4.44013">
        <ele>457.24</ele>
        <time>2013-12-04T14:38:57Z</time>
      </trkpt>
      <trkpt lat="44.66994" lon="4.44012">
        <ele>458.21</ele>
        <time>2013-12-04T14:39:04Z</time>
      </trkpt>
      <trkpt lat="44.67001" lon="4.44013">
        <ele>458.69</ele>
        <time>2013-12-04T14:39:08Z</time>
      </trkpt>
      <trkpt lat="44.67024" lon="4.44022">
        <ele>462.05</ele>
        <time>2013-12-04T14:39:21Z</time>
      </trkpt>
      <trkpt lat="44.67035" lon="4.44026">
        <ele>462.53</ele>
        <time>2013-12-04T14:39:27Z</time>
      </trkpt>
      <trkpt lat="44.67055" lon="4.44032">
        <ele>464.45</ele>
        <time>2013-12-04T14:39:39Z</time>
      </trkpt>
      <trkpt lat="44.67068" lon="4.44037">
        <ele>465.9</ele>
        <time>2013-12-04T14:39:46Z</time>
      </trkpt>
      <trkpt lat="44.67098" lon="4.44052">
        <ele>467.82</ele>
        <time>2013-12-04T14:40:00Z</time>
      </trkpt>
      <trkpt lat="44.67122" lon="4.44067">
        <ele>469.26</ele>
        <time>2013-12-04T14:40:13Z</time>
      </trkpt>
      <trkpt lat="44.6715" lon="4.44083">
        <ele>470.7</ele>
        <time>2013-12-04T14:40:25Z</time>
      </trkpt>
      <trkpt lat="44.67175" lon="4.44096">
        <ele>472.14</ele>
        <time>2013-12-04T14:40:37Z</time>
      </trkpt>
      <trkpt lat="44.67198" lon="4.4411">
        <ele>473.59</ele>
        <time>2013-12-04T14:40:50Z</time>
      </trkpt>
      <trkpt lat="44.67226" lon="4.44118">
        <ele>475.51</ele>
        <time>2013-12-04T14:41:04Z</time>
      </trkpt>
      <trkpt lat="44.67252" lon="4.44124">
        <ele>476.47</ele>
        <time>2013-12-04T14:41:14Z</time>
      </trkpt>
      <trkpt lat="44.67278" lon="4.4413">
        <ele>479.35</ele>
        <time>2013-12-04T14:41:28Z</time>
      </trkpt>
      <trkpt lat="44.67293" lon="4.44131">
        <ele>480.32</ele>
        <time>2013-12-04T14:41:34Z</time>
      </trkpt>
      <trkpt lat="44.67332" lon="4.44132">
        <ele>483.2</ele>
        <time>2013-12-04T14:41:49Z</time>
      </trkpt>
      <trkpt lat="44.67352" lon="4.44136">
        <ele>483.68</ele>
        <time>2013-12-04T14:41:58Z</time>
      </trkpt>
      <trkpt lat="44.67371" lon="4.44139">
        <ele>486.56</ele>
        <time>2013-12-04T14:42:10Z</time>
      </trkpt>
      <trkpt lat="44.6738" lon="4.44141">
        <ele>487.05</ele>
        <time>2013-12-04T14:42:14Z</time>
      </trkpt>
      <trkpt lat="44.67408" lon="4.44152">
        <ele>489.93</ele>
        <time>2013-12-04T14:42:27Z</time>
      </trkpt>
      <trkpt lat="44.67429" lon="4.44165">
        <ele>491.85</ele>
        <time>2013-12-04T14:42:37Z</time>
      </trkpt>
      <trkpt lat="44.67457" lon="4.44176">
        <ele>491.85</ele>
        <time>2013-12-04T14:42:48Z</time>
      </trkpt>
      <trkpt lat="44.6749" lon="4.44187">
        <ele>491.85</ele>
        <time>2013-12-04T14:42:59Z</time>
      </trkpt>
      <trkpt lat="44.6751" lon="4.4419">
        <ele>491.85</ele>
        <time>2013-12-04T14:43:11Z</time>
      </trkpt>
      <trkpt lat="44.6751" lon="4.4419">
        <ele>491.85</ele>
        <time>2013-12-04T14:43:38Z</time>
      </trkpt>
      <trkpt lat="44.6751" lon="4.4419">
        <ele>491.37</ele>
        <time>2013-12-04T14:44:09Z</time>
      </trkpt>
      <trkpt lat="44.6751" lon="4.4419">
        <ele>491.37</ele>
        <time>2013-12-04T14:44:41Z</time>
      </trkpt>
      <trkpt lat="44.6751" lon="4.44191">
        <ele>491.37</ele>
        <time>2013-12-04T14:45:15Z</time>
      </trkpt>
      <trkpt lat="44.67512" lon="4.44191">
        <ele>491.85</ele>
        <time>2013-12-04T14:45:21Z</time>
      </trkpt>
      <trkpt lat="44.67519" lon="4.44189">
        <ele>491.85</ele>
        <time>2013-12-04T14:45:24Z</time>
      </trkpt>
      <trkpt lat="44.67546" lon="4.44192">
        <ele>494.74</ele>
        <time>2013-12-04T14:45:36Z</time>
      </trkpt>
      <trkpt lat="44.67566" lon="4.44208">
        <ele>498.1</ele>
        <time>2013-12-04T14:45:46Z</time>
      </trkpt>
      <trkpt lat="44.67568" lon="4.4421">
        <ele>498.1</ele>
        <time>2013-12-04T14:45:47Z</time>
      </trkpt>
      <trkpt lat="44.6757" lon="4.44212">
        <ele>498.1</ele>
        <time>2013-12-04T14:45:48Z</time>
      </trkpt>
      <trkpt lat="44.67596" lon="4.44221">
        <ele>500.02</ele>
        <time>2013-12-04T14:46:03Z</time>
      </trkpt>
      <trkpt lat="44.67619" lon="4.44239">
        <ele>502.43</ele>
        <time>2013-12-04T14:46:17Z</time>
      </trkpt>
      <trkpt lat="44.67642" lon="4.44257">
        <ele>504.35</ele>
        <time>2013-12-04T14:46:29Z</time>
      </trkpt>
      <trkpt lat="44.67667" lon="4.44272">
        <ele>506.75</ele>
        <time>2013-12-04T14:46:43Z</time>
      </trkpt>
      <trkpt lat="44.67693" lon="4.44295">
        <ele>508.67</ele>
        <time>2013-12-04T14:46:57Z</time>
      </trkpt>
      <trkpt lat="44.67711" lon="4.4431">
        <ele>509.64</ele>
        <time>2013-12-04T14:47:07Z</time>
      </trkpt>
      <trkpt lat="44.67733" lon="4.44319">
        <ele>511.56</ele>
        <time>2013-12-04T14:47:19Z</time>
      </trkpt>
      <trkpt lat="44.67759" lon="4.44323">
        <ele>512.52</ele>
        <time>2013-12-04T14:47:31Z</time>
      </trkpt>
      <trkpt lat="44.67771" lon="4.44324">
        <ele>513.48</ele>
        <time>2013-12-04T14:47:36Z</time>
      </trkpt>
      <trkpt lat="44.67794" lon="4.44323">
        <ele>515.4</ele>
        <time>2013-12-04T14:47:47Z</time>
      </trkpt>
      <trkpt lat="44.67801" lon="4.44323">
        <ele>516.37</ele>
        <time>2013-12-04T14:47:51Z</time>
      </trkpt>
      <trkpt lat="44.67832" lon="4.44331">
        <ele>517.33</ele>
        <time>2013-12-04T14:48:05Z</time>
      </trkpt>
      <trkpt lat="44.67861" lon="4.44333">
        <ele>520.21</ele>
        <time>2013-12-04T14:48:18Z</time>
      </trkpt>
      <trkpt lat="44.67866" lon="4.44335">
        <ele>520.69</ele>
        <time>2013-12-04T14:48:21Z</time>
      </trkpt>
      <trkpt lat="44.679" lon="4.44342">
        <ele>522.13</ele>
        <time>2013-12-04T14:48:36Z</time>
      </trkpt>
      <trkpt lat="44.67903" lon="4.44346">
        <ele>522.61</ele>
        <time>2013-12-04T14:48:38Z</time>
      </trkpt>
      <trkpt lat="44.67929" lon="4.44362">
        <ele>525.02</ele>
        <time>2013-12-04T14:48:52Z</time>
      </trkpt>
      <trkpt lat="44.67951" lon="4.44378">
        <ele>527.9</ele>
        <time>2013-12-04T14:49:06Z</time>
      </trkpt>
      <trkpt lat="44.67972" lon="4.44383">
        <ele>530.3</ele>
        <time>2013-12-04T14:49:18Z</time>
      </trkpt>
      <trkpt lat="44.67992" lon="4.44395">
        <ele>531.75</ele>
        <time>2013-12-04T14:49:28Z</time>
      </trkpt>
      <trkpt lat="44.68014" lon="4.44421">
        <ele>532.71</ele>
        <time>2013-12-04T14:49:42Z</time>
      </trkpt>
      <trkpt lat="44.68027" lon="4.44439">
        <ele>533.19</ele>
        <time>2013-12-04T14:49:49Z</time>
      </trkpt>
      <trkpt lat="44.68035" lon="4.44452">
        <ele>534.15</ele>
        <time>2013-12-04T14:49:55Z</time>
      </trkpt>
      <trkpt lat="44.68057" lon="4.44476">
        <ele>535.11</ele>
        <time>2013-12-04T14:50:08Z</time>
      </trkpt>
      <trkpt lat="44.68083" lon="4.44494">
        <ele>535.11</ele>
        <time>2013-12-04T14:50:20Z</time>
      </trkpt>
      <trkpt lat="44.68109" lon="4.4451">
        <ele>534.15</ele>
        <time>2013-12-04T14:50:31Z</time>
      </trkpt>
      <trkpt lat="44.68135" lon="4.4453">
        <ele>533.19</ele>
        <time>2013-12-04T14:50:39Z</time>
      </trkpt>
      <trkpt lat="44.68156" lon="4.44547">
        <ele>532.23</ele>
        <time>2013-12-04T14:50:44Z</time>
      </trkpt>
      <trkpt lat="44.68159" lon="4.4455">
        <ele>532.23</ele>
        <time>2013-12-04T14:50:45Z</time>
      </trkpt>
      <trkpt lat="44.68165" lon="4.44555">
        <ele>530.3</ele>
        <time>2013-12-04T14:50:48Z</time>
      </trkpt>
      <trkpt lat="44.68165" lon="4.44555">
        <ele>529.82</ele>
        <time>2013-12-04T14:51:08Z</time>
      </trkpt>
      <trkpt lat="44.68165" lon="4.44555">
        <ele>529.82</ele>
        <time>2013-12-04T14:51:35Z</time>
      </trkpt>
      <trkpt lat="44.68165" lon="4.44555">
        <ele>529.82</ele>
        <time>2013-12-04T14:52:05Z</time>
      </trkpt>
      <trkpt lat="44.68165" lon="4.44555">
        <ele>529.82</ele>
        <time>2013-12-04T14:52:28Z</time>
      </trkpt>
      <trkpt lat="44.68166" lon="4.44556">
        <ele>530.3</ele>
        <time>2013-12-04T14:52:43Z</time>
      </trkpt>
      <trkpt lat="44.68167" lon="4.44556">
        <ele>529.82</ele>
        <time>2013-12-04T14:52:44Z</time>
      </trkpt>
      <trkpt lat="44.68168" lon="4.44554">
        <ele>529.82</ele>
        <time>2013-12-04T14:52:45Z</time>
      </trkpt>
      <trkpt lat="44.68169" lon="4.44552">
        <ele>529.82</ele>
        <time>2013-12-04T14:52:46Z</time>
      </trkpt>
      <trkpt lat="44.68168" lon="4.4455">
        <ele>529.82</ele>
        <time>2013-12-04T14:52:47Z</time>
      </trkpt>
      <trkpt lat="44.68167" lon="4.44546">
        <ele>529.82</ele>
        <time>2013-12-04T14:52:48Z</time>
      </trkpt>
      <trkpt lat="44.68167" lon="4.44543">
        <ele>530.3</ele>
        <time>2013-12-04T14:52:49Z</time>
      </trkpt>
      <trkpt lat="44.68166" lon="4.44538">
        <ele>530.3</ele>
        <time>2013-12-04T14:52:50Z</time>
      </trkpt>
      <trkpt lat="44.68162" lon="4.44509">
        <ele>530.79</ele>
        <time>2013-12-04T14:52:59Z</time>
      </trkpt>
      <trkpt lat="44.68161" lon="4.44506">
        <ele>530.79</ele>
        <time>2013-12-04T14:53:00Z</time>
      </trkpt>
      <trkpt lat="44.68143" lon="4.44474">
        <ele>532.23</ele>
        <time>2013-12-04T14:53:11Z</time>
      </trkpt>
      <trkpt lat="44.68122" lon="4.44445">
        <ele>532.23</ele>
        <time>2013-12-04T14:53:22Z</time>
      </trkpt>
      <trkpt lat="44.68093" lon="4.44405">
        <ele>529.82</ele>
        <time>2013-12-04T14:53:31Z</time>
      </trkpt>
      <trkpt lat="44.68089" lon="4.44398">
        <ele>529.34</ele>
        <time>2013-12-04T14:53:32Z</time>
      </trkpt>
      <trkpt lat="44.68087" lon="4.44389">
        <ele>528.86</ele>
        <time>2013-12-04T14:53:33Z</time>
      </trkpt>
      <trkpt lat="44.68085" lon="4.4438">
        <ele>528.38</ele>
        <time>2013-12-04T14:53:34Z</time>
      </trkpt>
      <trkpt lat="44.68085" lon="4.4437">
        <ele>527.9</ele>
        <time>2013-12-04T14:53:35Z</time>
      </trkpt>
      <trkpt lat="44.68086" lon="4.4436">
        <ele>527.42</ele>
        <time>2013-12-04T14:53:36Z</time>
      </trkpt>
      <trkpt lat="44.68088" lon="4.44348">
        <ele>526.46</ele>
        <time>2013-12-04T14:53:37Z</time>
      </trkpt>
      <trkpt lat="44.6809" lon="4.44337">
        <ele>525.5</ele>
        <time>2013-12-04T14:53:38Z</time>
      </trkpt>
      <trkpt lat="44.68097" lon="4.44302">
        <ele>523.09</ele>
        <time>2013-12-04T14:53:43Z</time>
      </trkpt>
      <trkpt lat="44.68096" lon="4.44298">
        <ele>523.09</ele>
        <time>2013-12-04T14:53:44Z</time>
      </trkpt>
      <trkpt lat="44.68095" lon="4.44295">
        <ele>523.09</ele>
        <time>2013-12-04T14:53:45Z</time>
      </trkpt>
      <trkpt lat="44.68094" lon="4.44292">
        <ele>523.09</ele>
        <time>2013-12-04T14:53:46Z</time>
      </trkpt>
      <trkpt lat="44.68094" lon="4.44289">
        <ele>523.09</ele>
        <time>2013-12-04T14:53:47Z</time>
      </trkpt>
      <trkpt lat="44.68094" lon="4.44285">
        <ele>523.58</ele>
        <time>2013-12-04T14:53:48Z</time>
      </trkpt>
      <trkpt lat="44.68097" lon="4.44276">
        <ele>521.65</ele>
        <time>2013-12-04T14:53:56Z</time>
      </trkpt>
      <trkpt lat="44.68097" lon="4.44276">
        <ele>521.65</ele>
        <time>2013-12-04T14:54:17Z</time>
      </trkpt>
      <trkpt lat="44.68097" lon="4.44276">
        <ele>521.65</ele>
        <time>2013-12-04T14:54:39Z</time>
      </trkpt>
      <trkpt lat="44.68097" lon="4.44276">
        <ele>521.65</ele>
        <time>2013-12-04T14:55:06Z</time>
      </trkpt>
      <trkpt lat="44.68101" lon="4.44262">
        <ele>520.69</ele>
        <time>2013-12-04T14:55:22Z</time>
      </trkpt>
      <trkpt lat="44.68103" lon="4.44256">
        <ele>520.21</ele>
        <time>2013-12-04T14:55:23Z</time>
      </trkpt>
      <trkpt lat="44.68106" lon="4.4425">
        <ele>519.73</ele>
        <time>2013-12-04T14:55:24Z</time>
      </trkpt>
      <trkpt lat="44.6813" lon="4.44226">
        <ele>517.33</ele>
        <time>2013-12-04T14:55:29Z</time>
      </trkpt>
      <trkpt lat="44.68136" lon="4.44223">
        <ele>515.88</ele>
        <time>2013-12-04T14:55:30Z</time>
      </trkpt>
      <trkpt lat="44.68141" lon="4.44221">
        <ele>514.92</ele>
        <time>2013-12-04T14:55:31Z</time>
      </trkpt>
      <trkpt lat="44.68146" lon="4.4422">
        <ele>514.92</ele>
        <time>2013-12-04T14:55:32Z</time>
      </trkpt>
      <trkpt lat="44.68151" lon="4.44219">
        <ele>514.92</ele>
        <time>2013-12-04T14:55:33Z</time>
      </trkpt>
      <trkpt lat="44.68156" lon="4.44219">
        <ele>513.96</ele>
        <time>2013-12-04T14:55:34Z</time>
      </trkpt>
      <trkpt lat="44.68164" lon="4.4422">
        <ele>513.48</ele>
        <time>2013-12-04T14:55:36Z</time>
      </trkpt>
      <trkpt lat="44.68182" lon="4.44208">
        <ele>511.56</ele>
        <time>2013-12-04T14:55:43Z</time>
      </trkpt>
      <trkpt lat="44.68181" lon="4.44204">
        <ele>511.08</ele>
        <time>2013-12-04T14:55:44Z</time>
      </trkpt>
      <trkpt lat="44.68179" lon="4.44201">
        <ele>511.08</ele>
        <time>2013-12-04T14:55:45Z</time>
      </trkpt>
      <trkpt lat="44.68177" lon="4.442">
        <ele>510.6</ele>
        <time>2013-12-04T14:55:46Z</time>
      </trkpt>
      <trkpt lat="44.68174" lon="4.44199">
        <ele>510.6</ele>
        <time>2013-12-04T14:55:47Z</time>
      </trkpt>
      <trkpt lat="44.68171" lon="4.44198">
        <ele>510.6</ele>
        <time>2013-12-04T14:55:48Z</time>
      </trkpt>
      <trkpt lat="44.68169" lon="4.44197">
        <ele>510.6</ele>
        <time>2013-12-04T14:55:49Z</time>
      </trkpt>
      <trkpt lat="44.68166" lon="4.44197">
        <ele>510.6</ele>
        <time>2013-12-04T14:55:50Z</time>
      </trkpt>
      <trkpt lat="44.68132" lon="4.44193">
        <ele>509.64</ele>
        <time>2013-12-04T14:56:03Z</time>
      </trkpt>
      <trkpt lat="44.68098" lon="4.44195">
        <ele>510.12</ele>
        <time>2013-12-04T14:56:13Z</time>
      </trkpt>
      <trkpt lat="44.68095" lon="4.44194">
        <ele>510.6</ele>
        <time>2013-12-04T14:56:14Z</time>
      </trkpt>
      <trkpt lat="44.68093" lon="4.44191">
        <ele>510.6</ele>
        <time>2013-12-04T14:56:15Z</time>
      </trkpt>
      <trkpt lat="44.6809" lon="4.44187">
        <ele>510.6</ele>
        <time>2013-12-04T14:56:16Z</time>
      </trkpt>
      <trkpt lat="44.68088" lon="4.44181">
        <ele>510.12</ele>
        <time>2013-12-04T14:56:17Z</time>
      </trkpt>
      <trkpt lat="44.68085" lon="4.44176">
        <ele>509.64</ele>
        <time>2013-12-04T14:56:18Z</time>
      </trkpt>
      <trkpt lat="44.68083" lon="4.44171">
        <ele>509.64</ele>
        <time>2013-12-04T14:56:19Z</time>
      </trkpt>
      <trkpt lat="44.68083" lon="4.44166">
        <ele>509.64</ele>
        <time>2013-12-04T14:56:20Z</time>
      </trkpt>
      <trkpt lat="44.68083" lon="4.44161">
        <ele>509.64</ele>
        <time>2013-12-04T14:56:21Z</time>
      </trkpt>
      <trkpt lat="44.68083" lon="4.44157">
        <ele>509.64</ele>
        <time>2013-12-04T14:56:22Z</time>
      </trkpt>
      <trkpt lat="44.68083" lon="4.44153">
        <ele>509.64</ele>
        <time>2013-12-04T14:56:23Z</time>
      </trkpt>
      <trkpt lat="44.68083" lon="4.44122">
        <ele>510.6</ele>
        <time>2013-12-04T14:56:32Z</time>
      </trkpt>
      <trkpt lat="44.68058" lon="4.44097">
        <ele>511.56</ele>
        <time>2013-12-04T14:56:44Z</time>
      </trkpt>
      <trkpt lat="44.6802" lon="4.44069">
        <ele>511.08</ele>
        <time>2013-12-04T14:56:56Z</time>
      </trkpt>
      <trkpt lat="44.67997" lon="4.44052">
        <ele>510.12</ele>
        <time>2013-12-04T14:57:02Z</time>
      </trkpt>
      <trkpt lat="44.67981" lon="4.4404">
        <ele>509.16</ele>
        <time>2013-12-04T14:57:06Z</time>
      </trkpt>
      <trkpt lat="44.67928" lon="4.44008">
        <ele>507.23</ele>
        <time>2013-12-04T14:57:19Z</time>
      </trkpt>
      <trkpt lat="44.67924" lon="4.44007">
        <ele>507.23</ele>
        <time>2013-12-04T14:57:20Z</time>
      </trkpt>
      <trkpt lat="44.67886" lon="4.44009">
        <ele>506.75</ele>
        <time>2013-12-04T14:57:30Z</time>
      </trkpt>
      <trkpt lat="44.67843" lon="4.4401">
        <ele>506.75</ele>
        <time>2013-12-04T14:57:41Z</time>
      </trkpt>
      <trkpt lat="44.67793" lon="4.44011">
        <ele>507.23</ele>
        <time>2013-12-04T14:57:54Z</time>
      </trkpt>
      <trkpt lat="44.67748" lon="4.44013">
        <ele>507.71</ele>
        <time>2013-12-04T14:58:06Z</time>
      </trkpt>
      <trkpt lat="44.67688" lon="4.44012">
        <ele>507.23</ele>
        <time>2013-12-04T14:58:21Z</time>
      </trkpt>
      <trkpt lat="44.67662" lon="4.44011">
        <ele>507.23</ele>
        <time>2013-12-04T14:58:32Z</time>
      </trkpt>
      <trkpt lat="44.67661" lon="4.44011">
        <ele>507.23</ele>
        <time>2013-12-04T14:58:33Z</time>
      </trkpt>
      <trkpt lat="44.67659" lon="4.44011">
        <ele>507.23</ele>
        <time>2013-12-04T14:58:34Z</time>
      </trkpt>
      <trkpt lat="44.67657" lon="4.44011">
        <ele>506.75</ele>
        <time>2013-12-04T14:58:35Z</time>
      </trkpt>
      <trkpt lat="44.67654" lon="4.44011">
        <ele>507.23</ele>
        <time>2013-12-04T14:58:36Z</time>
      </trkpt>
      <trkpt lat="44.67651" lon="4.44011">
        <ele>506.75</ele>
        <time>2013-12-04T14:58:37Z</time>
      </trkpt>
      <trkpt lat="44.67649" lon="4.44011">
        <ele>506.27</ele>
        <time>2013-12-04T14:58:38Z</time>
      </trkpt>
      <trkpt lat="44.67648" lon="4.44011">
        <ele>506.75</ele>
        <time>2013-12-04T14:58:41Z</time>
      </trkpt>
      <trkpt lat="44.67647" lon="4.44011">
        <ele>506.75</ele>
        <time>2013-12-04T14:58:42Z</time>
      </trkpt>
      <trkpt lat="44.67642" lon="4.44012">
        <ele>506.27</ele>
        <time>2013-12-04T14:58:49Z</time>
      </trkpt>
      <trkpt lat="44.67639" lon="4.44012">
        <ele>506.27</ele>
        <time>2013-12-04T14:58:50Z</time>
      </trkpt>
      <trkpt lat="44.67636" lon="4.44011">
        <ele>506.27</ele>
        <time>2013-12-04T14:58:51Z</time>
      </trkpt>
      <trkpt lat="44.67627" lon="4.44011">
        <ele>505.31</ele>
        <time>2013-12-04T14:58:57Z</time>
      </trkpt>
      <trkpt lat="44.67625" lon="4.44011">
        <ele>505.31</ele>
        <time>2013-12-04T14:58:58Z</time>
      </trkpt>
      <trkpt lat="44.67622" lon="4.44011">
        <ele>505.31</ele>
        <time>2013-12-04T14:58:59Z</time>
      </trkpt>
      <trkpt lat="44.67618" lon="4.4401">
        <ele>505.31</ele>
        <time>2013-12-04T14:59:00Z</time>
      </trkpt>
      <trkpt lat="44.67613" lon="4.44009">
        <ele>504.83</ele>
        <time>2013-12-04T14:59:01Z</time>
      </trkpt>
      <trkpt lat="44.67595" lon="4.44009">
        <ele>503.87</ele>
        <time>2013-12-04T14:59:04Z</time>
      </trkpt>
      <trkpt lat="44.67591" lon="4.44012">
        <ele>503.87</ele>
        <time>2013-12-04T14:59:05Z</time>
      </trkpt>
      <trkpt lat="44.67588" lon="4.44016">
        <ele>503.39</ele>
        <time>2013-12-04T14:59:06Z</time>
      </trkpt>
      <trkpt lat="44.67587" lon="4.44022">
        <ele>503.39</ele>
        <time>2013-12-04T14:59:07Z</time>
      </trkpt>
      <trkpt lat="44.67587" lon="4.44028">
        <ele>502.43</ele>
        <time>2013-12-04T14:59:08Z</time>
      </trkpt>
      <trkpt lat="44.67589" lon="4.44035">
        <ele>501.95</ele>
        <time>2013-12-04T14:59:09Z</time>
      </trkpt>
      <trkpt lat="44.67591" lon="4.44042">
        <ele>502.91</ele>
        <time>2013-12-04T14:59:10Z</time>
      </trkpt>
      <trkpt lat="44.67592" lon="4.44049">
        <ele>501.95</ele>
        <time>2013-12-04T14:59:11Z</time>
      </trkpt>
      <trkpt lat="44.67591" lon="4.44057">
        <ele>500.98</ele>
        <time>2013-12-04T14:59:12Z</time>
      </trkpt>
      <trkpt lat="44.6759" lon="4.44066">
        <ele>500.02</ele>
        <time>2013-12-04T14:59:13Z</time>
      </trkpt>
      <trkpt lat="44.67589" lon="4.44075">
        <ele>499.06</ele>
        <time>2013-12-04T14:59:14Z</time>
      </trkpt>
      <trkpt lat="44.67586" lon="4.44084">
        <ele>498.58</ele>
        <time>2013-12-04T14:59:15Z</time>
      </trkpt>
      <trkpt lat="44.67583" lon="4.44093">
        <ele>498.58</ele>
        <time>2013-12-04T14:59:16Z</time>
      </trkpt>
      <trkpt lat="44.67575" lon="4.44109">
        <ele>497.62</ele>
        <time>2013-12-04T14:59:18Z</time>
      </trkpt>
      <trkpt lat="44.67569" lon="4.44123">
        <ele>497.14</ele>
        <time>2013-12-04T14:59:20Z</time>
      </trkpt>
      <trkpt lat="44.67566" lon="4.4413">
        <ele>497.14</ele>
        <time>2013-12-04T14:59:21Z</time>
      </trkpt>
      <trkpt lat="44.6756" lon="4.44154">
        <ele>495.7</ele>
        <time>2013-12-04T14:59:24Z</time>
      </trkpt>
      <trkpt lat="44.67557" lon="4.44162">
        <ele>495.7</ele>
        <time>2013-12-04T14:59:25Z</time>
      </trkpt>
      <trkpt lat="44.67547" lon="4.44186">
        <ele>494.26</ele>
        <time>2013-12-04T14:59:28Z</time>
      </trkpt>
      <trkpt lat="44.67541" lon="4.44194">
        <ele>493.77</ele>
        <time>2013-12-04T14:59:29Z</time>
      </trkpt>
      <trkpt lat="44.67535" lon="4.44199">
        <ele>493.29</ele>
        <time>2013-12-04T14:59:30Z</time>
      </trkpt>
      <trkpt lat="44.67529" lon="4.44203">
        <ele>492.81</ele>
        <time>2013-12-04T14:59:31Z</time>
      </trkpt>
      <trkpt lat="44.67523" lon="4.44203">
        <ele>491.85</ele>
        <time>2013-12-04T14:59:32Z</time>
      </trkpt>
      <trkpt lat="44.67518" lon="4.44202">
        <ele>490.89</ele>
        <time>2013-12-04T14:59:33Z</time>
      </trkpt>
      <trkpt lat="44.67516" lon="4.44202">
        <ele>490.89</ele>
        <time>2013-12-04T14:59:34Z</time>
      </trkpt>
      <trkpt lat="44.67515" lon="4.44202">
        <ele>489.93</ele>
        <time>2013-12-04T14:59:47Z</time>
      </trkpt>
      <trkpt lat="44.67513" lon="4.44205">
        <ele>489.93</ele>
        <time>2013-12-04T14:59:52Z</time>
      </trkpt>
      <trkpt lat="44.67511" lon="4.44217">
        <ele>489.45</ele>
        <time>2013-12-04T14:59:55Z</time>
      </trkpt>
      <trkpt lat="44.67505" lon="4.44244">
        <ele>487.05</ele>
        <time>2013-12-04T15:00:00Z</time>
      </trkpt>
      <trkpt lat="44.67503" lon="4.44249">
        <ele>485.12</ele>
        <time>2013-12-04T15:00:01Z</time>
      </trkpt>
      <trkpt lat="44.67499" lon="4.44252">
        <ele>484.16</ele>
        <time>2013-12-04T15:00:02Z</time>
      </trkpt>
      <trkpt lat="44.67494" lon="4.44254">
        <ele>483.68</ele>
        <time>2013-12-04T15:00:03Z</time>
      </trkpt>
      <trkpt lat="44.67489" lon="4.44254">
        <ele>482.72</ele>
        <time>2013-12-04T15:00:04Z</time>
      </trkpt>
      <trkpt lat="44.67485" lon="4.44253">
        <ele>482.24</ele>
        <time>2013-12-04T15:00:05Z</time>
      </trkpt>
      <trkpt lat="44.67482" lon="4.44252">
        <ele>482.24</ele>
        <time>2013-12-04T15:00:06Z</time>
      </trkpt>
      <trkpt lat="44.6748" lon="4.44252">
        <ele>481.76</ele>
        <time>2013-12-04T15:00:07Z</time>
      </trkpt>
      <trkpt lat="44.67478" lon="4.44252">
        <ele>481.28</ele>
        <time>2013-12-04T15:00:08Z</time>
      </trkpt>
      <trkpt lat="44.67476" lon="4.44253">
        <ele>481.28</ele>
        <time>2013-12-04T15:00:09Z</time>
      </trkpt>
      <trkpt lat="44.67473" lon="4.44254">
        <ele>480.8</ele>
        <time>2013-12-04T15:00:10Z</time>
      </trkpt>
      <trkpt lat="44.6747" lon="4.44256">
        <ele>480.32</ele>
        <time>2013-12-04T15:00:11Z</time>
      </trkpt>
      <trkpt lat="44.67463" lon="4.4426">
        <ele>479.35</ele>
        <time>2013-12-04T15:00:13Z</time>
      </trkpt>
      <trkpt lat="44.6746" lon="4.44264">
        <ele>478.39</ele>
        <time>2013-12-04T15:00:14Z</time>
      </trkpt>
      <trkpt lat="44.67454" lon="4.44274">
        <ele>477.91</ele>
        <time>2013-12-04T15:00:16Z</time>
      </trkpt>
      <trkpt lat="44.6745" lon="4.44279">
        <ele>476.95</ele>
        <time>2013-12-04T15:00:17Z</time>
      </trkpt>
      <trkpt lat="44.67438" lon="4.44288">
        <ele>475.51</ele>
        <time>2013-12-04T15:00:19Z</time>
      </trkpt>
      <trkpt lat="44.67413" lon="4.44293">
        <ele>472.14</ele>
        <time>2013-12-04T15:00:23Z</time>
      </trkpt>
      <trkpt lat="44.67396" lon="4.44308">
        <ele>468.3</ele>
        <time>2013-12-04T15:00:27Z</time>
      </trkpt>
      <trkpt lat="44.67393" lon="4.44312">
        <ele>467.34</ele>
        <time>2013-12-04T15:00:28Z</time>
      </trkpt>
      <trkpt lat="44.67384" lon="4.44319">
        <ele>466.38</ele>
        <time>2013-12-04T15:00:30Z</time>
      </trkpt>
      <trkpt lat="44.67359" lon="4.44331">
        <ele>463.01</ele>
        <time>2013-12-04T15:00:36Z</time>
      </trkpt>
      <trkpt lat="44.6733" lon="4.4433">
        <ele>462.05</ele>
        <time>2013-12-04T15:00:42Z</time>
      </trkpt>
      <trkpt lat="44.67302" lon="4.4433">
        <ele>460.61</ele>
        <time>2013-12-04T15:00:47Z</time>
      </trkpt>
      <trkpt lat="44.67277" lon="4.44327">
        <ele>458.69</ele>
        <time>2013-12-04T15:00:51Z</time>
      </trkpt>
      <trkpt lat="44.67251" lon="4.44328">
        <ele>454.84</ele>
        <time>2013-12-04T15:00:55Z</time>
      </trkpt>
      <trkpt lat="44.67225" lon="4.44332">
        <ele>451.48</ele>
        <time>2013-12-04T15:00:59Z</time>
      </trkpt>
      <trkpt lat="44.67208" lon="4.44337">
        <ele>448.59</ele>
        <time>2013-12-04T15:01:02Z</time>
      </trkpt>
      <trkpt lat="44.6718" lon="4.44347">
        <ele>444.75</ele>
        <time>2013-12-04T15:01:08Z</time>
      </trkpt>
      <trkpt lat="44.6716" lon="4.44349">
        <ele>441.86</ele>
        <time>2013-12-04T15:01:13Z</time>
      </trkpt>
      <trkpt lat="44.67149" lon="4.44351">
        <ele>439.46</ele>
        <time>2013-12-04T15:01:17Z</time>
      </trkpt>
      <trkpt lat="44.67123" lon="4.44358">
        <ele>436.1</ele>
        <time>2013-12-04T15:01:23Z</time>
      </trkpt>
      <trkpt lat="44.67113" lon="4.44359">
        <ele>435.13</ele>
        <time>2013-12-04T15:01:25Z</time>
      </trkpt>
      <trkpt lat="44.67098" lon="4.4436">
        <ele>433.21</ele>
        <time>2013-12-04T15:01:28Z</time>
      </trkpt>
      <trkpt lat="44.67073" lon="4.44364">
        <ele>430.81</ele>
        <time>2013-12-04T15:01:33Z</time>
      </trkpt>
      <trkpt lat="44.67045" lon="4.44363">
        <ele>428.4</ele>
        <time>2013-12-04T15:01:38Z</time>
      </trkpt>
      <trkpt lat="44.67042" lon="4.44363">
        <ele>427.44</ele>
        <time>2013-12-04T15:01:48Z</time>
      </trkpt>
      <trkpt lat="44.67039" lon="4.44363">
        <ele>428.89</ele>
        <time>2013-12-04T15:02:05Z</time>
      </trkpt>
      <trkpt lat="44.67039" lon="4.44364">
        <ele>427.92</ele>
        <time>2013-12-04T15:02:21Z</time>
      </trkpt>
      <trkpt lat="44.67039" lon="4.44364">
        <ele>427.44</ele>
        <time>2013-12-04T15:02:48Z</time>
      </trkpt>
      <trkpt lat="44.67039" lon="4.44363">
        <ele>427.44</ele>
        <time>2013-12-04T15:03:10Z</time>
      </trkpt>
      <trkpt lat="44.67039" lon="4.44363">
        <ele>427.44</ele>
        <time>2013-12-04T15:03:40Z</time>
      </trkpt>
      <trkpt lat="44.67039" lon="4.44362">
        <ele>426.96</ele>
        <time>2013-12-04T15:04:07Z</time>
      </trkpt>
      <trkpt lat="44.67039" lon="4.44363">
        <ele>427.44</ele>
        <time>2013-12-04T15:04:28Z</time>
      </trkpt>
      <trkpt lat="44.67039" lon="4.44363">
        <ele>427.44</ele>
        <time>2013-12-04T15:04:48Z</time>
      </trkpt>
      <trkpt lat="44.67037" lon="4.44364">
        <ele>427.44</ele>
        <time>2013-12-04T15:04:59Z</time>
      </trkpt>
      <trkpt lat="44.67035" lon="4.44364">
        <ele>427.92</ele>
        <time>2013-12-04T15:05:00Z</time>
      </trkpt>
      <trkpt lat="44.67033" lon="4.44364">
        <ele>427.44</ele>
        <time>2013-12-04T15:05:01Z</time>
      </trkpt>
      <trkpt lat="44.67031" lon="4.44366">
        <ele>426.96</ele>
        <time>2013-12-04T15:05:02Z</time>
      </trkpt>
      <trkpt lat="44.67028" lon="4.44368">
        <ele>426.96</ele>
        <time>2013-12-04T15:05:03Z</time>
      </trkpt>
      <trkpt lat="44.67024" lon="4.44368">
        <ele>426.48</ele>
        <time>2013-12-04T15:05:04Z</time>
      </trkpt>
      <trkpt lat="44.67021" lon="4.44368">
        <ele>425.52</ele>
        <time>2013-12-04T15:05:05Z</time>
      </trkpt>
      <trkpt lat="44.67018" lon="4.44368">
        <ele>425.52</ele>
        <time>2013-12-04T15:05:06Z</time>
      </trkpt>
      <trkpt lat="44.67014" lon="4.44366">
        <ele>424.56</ele>
        <time>2013-12-04T15:05:15Z</time>
      </trkpt>
      <trkpt lat="44.67013" lon="4.44366">
        <ele>424.56</ele>
        <time>2013-12-04T15:05:16Z</time>
      </trkpt>
      <trkpt lat="44.67011" lon="4.44366">
        <ele>424.56</ele>
        <time>2013-12-04T15:05:17Z</time>
      </trkpt>
      <trkpt lat="44.67009" lon="4.44366">
        <ele>424.56</ele>
        <time>2013-12-04T15:05:18Z</time>
      </trkpt>
      <trkpt lat="44.67005" lon="4.44366">
        <ele>424.08</ele>
        <time>2013-12-04T15:05:19Z</time>
      </trkpt>
      <trkpt lat="44.67001" lon="4.44367">
        <ele>423.6</ele>
        <time>2013-12-04T15:05:20Z</time>
      </trkpt>
      <trkpt lat="44.66997" lon="4.44368">
        <ele>423.12</ele>
        <time>2013-12-04T15:05:21Z</time>
      </trkpt>
      <trkpt lat="44.66992" lon="4.44369">
        <ele>422.64</ele>
        <time>2013-12-04T15:05:22Z</time>
      </trkpt>
      <trkpt lat="44.66986" lon="4.4437">
        <ele>421.68</ele>
        <time>2013-12-04T15:05:23Z</time>
      </trkpt>
      <trkpt lat="44.6698" lon="4.44369">
        <ele>421.19</ele>
        <time>2013-12-04T15:05:24Z</time>
      </trkpt>
      <trkpt lat="44.66974" lon="4.44368">
        <ele>421.19</ele>
        <time>2013-12-04T15:05:25Z</time>
      </trkpt>
      <trkpt lat="44.66922" lon="4.44349">
        <ele>418.79</ele>
        <time>2013-12-04T15:05:34Z</time>
      </trkpt>
      <trkpt lat="44.66916" lon="4.44348">
        <ele>418.31</ele>
        <time>2013-12-04T15:05:35Z</time>
      </trkpt>
      <trkpt lat="44.66909" lon="4.44348">
        <ele>417.83</ele>
        <time>2013-12-04T15:05:36Z</time>
      </trkpt>
      <trkpt lat="44.66902" lon="4.44349">
        <ele>417.35</ele>
        <time>2013-12-04T15:05:37Z</time>
      </trkpt>
      <trkpt lat="44.66896" lon="4.4435">
        <ele>416.87</ele>
        <time>2013-12-04T15:05:38Z</time>
      </trkpt>
      <trkpt lat="44.66882" lon="4.44352">
        <ele>415.91</ele>
        <time>2013-12-04T15:05:40Z</time>
      </trkpt>
      <trkpt lat="44.66844" lon="4.44352">
        <ele>412.54</ele>
        <time>2013-12-04T15:05:45Z</time>
      </trkpt>
      <trkpt lat="44.668" lon="4.4435">
        <ele>408.7</ele>
        <time>2013-12-04T15:05:50Z</time>
      </trkpt>
      <trkpt lat="44.66761" lon="4.44346">
        <ele>406.77</ele>
        <time>2013-12-04T15:05:54Z</time>
      </trkpt>
      <trkpt lat="44.66752" lon="4.44343">
        <ele>406.29</ele>
        <time>2013-12-04T15:05:55Z</time>
      </trkpt>
      <trkpt lat="44.66743" lon="4.44338">
        <ele>406.29</ele>
        <time>2013-12-04T15:05:56Z</time>
      </trkpt>
      <trkpt lat="44.66735" lon="4.44331">
        <ele>405.33</ele>
        <time>2013-12-04T15:05:57Z</time>
      </trkpt>
      <trkpt lat="44.66729" lon="4.44322">
        <ele>404.85</ele>
        <time>2013-12-04T15:05:58Z</time>
      </trkpt>
      <trkpt lat="44.66726" lon="4.4431">
        <ele>404.37</ele>
        <time>2013-12-04T15:05:59Z</time>
      </trkpt>
      <trkpt lat="44.66724" lon="4.443">
        <ele>404.37</ele>
        <time>2013-12-04T15:06:00Z</time>
      </trkpt>
      <trkpt lat="44.66719" lon="4.44279">
        <ele>403.41</ele>
        <time>2013-12-04T15:06:02Z</time>
      </trkpt>
      <trkpt lat="44.66716" lon="4.44271">
        <ele>402.93</ele>
        <time>2013-12-04T15:06:03Z</time>
      </trkpt>
      <trkpt lat="44.66711" lon="4.44264">
        <ele>402.93</ele>
        <time>2013-12-04T15:06:04Z</time>
      </trkpt>
      <trkpt lat="44.66706" lon="4.44259">
        <ele>402.93</ele>
        <time>2013-12-04T15:06:05Z</time>
      </trkpt>
      <trkpt lat="44.667" lon="4.44256">
        <ele>402.93</ele>
        <time>2013-12-04T15:06:06Z</time>
      </trkpt>
      <trkpt lat="44.66695" lon="4.44257">
        <ele>402.45</ele>
        <time>2013-12-04T15:06:07Z</time>
      </trkpt>
      <trkpt lat="44.6669" lon="4.44259">
        <ele>402.45</ele>
        <time>2013-12-04T15:06:08Z</time>
      </trkpt>
      <trkpt lat="44.66686" lon="4.44263">
        <ele>401.97</ele>
        <time>2013-12-04T15:06:09Z</time>
      </trkpt>
      <trkpt lat="44.66683" lon="4.44268">
        <ele>401.49</ele>
        <time>2013-12-04T15:06:10Z</time>
      </trkpt>
      <trkpt lat="44.66679" lon="4.44274">
        <ele>401.01</ele>
        <time>2013-12-04T15:06:11Z</time>
      </trkpt>
      <trkpt lat="44.66677" lon="4.44279">
        <ele>400.53</ele>
        <time>2013-12-04T15:06:12Z</time>
      </trkpt>
      <trkpt lat="44.66671" lon="4.4429">
        <ele>399.57</ele>
        <time>2013-12-04T15:06:16Z</time>
      </trkpt>
      <trkpt lat="44.6667" lon="4.44291">
        <ele>399.57</ele>
        <time>2013-12-04T15:06:17Z</time>
      </trkpt>
      <trkpt lat="44.66657" lon="4.44306">
        <ele>399.08</ele>
        <time>2013-12-04T15:06:22Z</time>
      </trkpt>
      <trkpt lat="44.66632" lon="4.44321">
        <ele>397.64</ele>
        <time>2013-12-04T15:06:29Z</time>
      </trkpt>
      <trkpt lat="44.66574" lon="4.4433">
        <ele>398.12</ele>
        <time>2013-12-04T15:06:39Z</time>
      </trkpt>
      <trkpt lat="44.66568" lon="4.4433">
        <ele>398.12</ele>
        <time>2013-12-04T15:06:40Z</time>
      </trkpt>
      <trkpt lat="44.66562" lon="4.44328">
        <ele>397.64</ele>
        <time>2013-12-04T15:06:41Z</time>
      </trkpt>
      <trkpt lat="44.66545" lon="4.44324">
        <ele>397.64</ele>
        <time>2013-12-04T15:06:44Z</time>
      </trkpt>
      <trkpt lat="44.66539" lon="4.44323">
        <ele>397.64</ele>
        <time>2013-12-04T15:06:45Z</time>
      </trkpt>
      <trkpt lat="44.66532" lon="4.44322">
        <ele>397.16</ele>
        <time>2013-12-04T15:06:46Z</time>
      </trkpt>
      <trkpt lat="44.66454" lon="4.44334">
        <ele>393.8</ele>
        <time>2013-12-04T15:06:57Z</time>
      </trkpt>
      <trkpt lat="44.66402" lon="4.44342">
        <ele>390.91</ele>
        <time>2013-12-04T15:07:03Z</time>
      </trkpt>
      <trkpt lat="44.66364" lon="4.4434">
        <ele>388.03</ele>
        <time>2013-12-04T15:07:10Z</time>
      </trkpt>
      <trkpt lat="44.66344" lon="4.44354">
        <ele>384.66</ele>
        <time>2013-12-04T15:07:19Z</time>
      </trkpt>
      <trkpt lat="44.6634" lon="4.44356">
        <ele>383.7</ele>
        <time>2013-12-04T15:07:20Z</time>
      </trkpt>
      <trkpt lat="44.66336" lon="4.44358">
        <ele>382.74</ele>
        <time>2013-12-04T15:07:21Z</time>
      </trkpt>
      <trkpt lat="44.66316" lon="4.44366">
        <ele>379.86</ele>
        <time>2013-12-04T15:07:26Z</time>
      </trkpt>
      <trkpt lat="44.66299" lon="4.44372">
        <ele>376.49</ele>
        <time>2013-12-04T15:07:33Z</time>
      </trkpt>
      <trkpt lat="44.66297" lon="4.44371">
        <ele>375.53</ele>
        <time>2013-12-04T15:07:35Z</time>
      </trkpt>
      <trkpt lat="44.66296" lon="4.44372">
        <ele>376.01</ele>
        <time>2013-12-04T15:07:36Z</time>
      </trkpt>
      <trkpt lat="44.66294" lon="4.44371">
        <ele>375.05</ele>
        <time>2013-12-04T15:07:51Z</time>
      </trkpt>
      <trkpt lat="44.66289" lon="4.4437">
        <ele>375.05</ele>
        <time>2013-12-04T15:08:00Z</time>
      </trkpt>
      <trkpt lat="44.66287" lon="4.44369">
        <ele>374.57</ele>
        <time>2013-12-04T15:08:01Z</time>
      </trkpt>
      <trkpt lat="44.66285" lon="4.44368">
        <ele>373.61</ele>
        <time>2013-12-04T15:08:02Z</time>
      </trkpt>
      <trkpt lat="44.66283" lon="4.44367">
        <ele>373.13</ele>
        <time>2013-12-04T15:08:03Z</time>
      </trkpt>
      <trkpt lat="44.66281" lon="4.44366">
        <ele>372.65</ele>
        <time>2013-12-04T15:08:04Z</time>
      </trkpt>
      <trkpt lat="44.66279" lon="4.44364">
        <ele>372.17</ele>
        <time>2013-12-04T15:08:05Z</time>
      </trkpt>
      <trkpt lat="44.66275" lon="4.44362">
        <ele>371.69</ele>
        <time>2013-12-04T15:08:06Z</time>
      </trkpt>
      <trkpt lat="44.66273" lon="4.4436">
        <ele>371.69</ele>
        <time>2013-12-04T15:08:07Z</time>
      </trkpt>
      <trkpt lat="44.6627" lon="4.4436">
        <ele>371.69</ele>
        <time>2013-12-04T15:08:08Z</time>
      </trkpt>
      <trkpt lat="44.66268" lon="4.44359">
        <ele>371.21</ele>
        <time>2013-12-04T15:08:19Z</time>
      </trkpt>
      <trkpt lat="44.66264" lon="4.44359">
        <ele>371.21</ele>
        <time>2013-12-04T15:08:26Z</time>
      </trkpt>
      <trkpt lat="44.66262" lon="4.44358">
        <ele>371.21</ele>
        <time>2013-12-04T15:08:27Z</time>
      </trkpt>
      <trkpt lat="44.66259" lon="4.44357">
        <ele>371.21</ele>
        <time>2013-12-04T15:08:28Z</time>
      </trkpt>
      <trkpt lat="44.66243" lon="4.44356">
        <ele>369.76</ele>
        <time>2013-12-04T15:08:32Z</time>
      </trkpt>
      <trkpt lat="44.66238" lon="4.44353">
        <ele>369.28</ele>
        <time>2013-12-04T15:08:33Z</time>
      </trkpt>
      <trkpt lat="44.66234" lon="4.4435">
        <ele>368.32</ele>
        <time>2013-12-04T15:08:34Z</time>
      </trkpt>
      <trkpt lat="44.6623" lon="4.44346">
        <ele>367.84</ele>
        <time>2013-12-04T15:08:35Z</time>
      </trkpt>
      <trkpt lat="44.66188" lon="4.44321">
        <ele>364.48</ele>
        <time>2013-12-04T15:08:45Z</time>
      </trkpt>
      <trkpt lat="44.6618" lon="4.44317">
        <ele>363.52</ele>
        <time>2013-12-04T15:08:48Z</time>
      </trkpt>
      <trkpt lat="44.66178" lon="4.44317">
        <ele>363.04</ele>
        <time>2013-12-04T15:09:04Z</time>
      </trkpt>
      <trkpt lat="44.66175" lon="4.44317">
        <ele>363.04</ele>
        <time>2013-12-04T15:09:20Z</time>
      </trkpt>
      <trkpt lat="44.66175" lon="4.44317">
        <ele>363.52</ele>
        <time>2013-12-04T15:09:32Z</time>
      </trkpt>
      <trkpt lat="44.66174" lon="4.44315">
        <ele>364</ele>
        <time>2013-12-04T15:09:33Z</time>
      </trkpt>
      <trkpt lat="44.66172" lon="4.44314">
        <ele>363.52</ele>
        <time>2013-12-04T15:09:34Z</time>
      </trkpt>
      <trkpt lat="44.66168" lon="4.44314">
        <ele>362.55</ele>
        <time>2013-12-04T15:09:35Z</time>
      </trkpt>
      <trkpt lat="44.66163" lon="4.44316">
        <ele>361.11</ele>
        <time>2013-12-04T15:09:36Z</time>
      </trkpt>
      <trkpt lat="44.6614" lon="4.44326">
        <ele>357.27</ele>
        <time>2013-12-04T15:09:40Z</time>
      </trkpt>
      <trkpt lat="44.66128" lon="4.44333">
        <ele>355.34</ele>
        <time>2013-12-04T15:09:42Z</time>
      </trkpt>
      <trkpt lat="44.66122" lon="4.44335">
        <ele>354.38</ele>
        <time>2013-12-04T15:09:43Z</time>
      </trkpt>
      <trkpt lat="44.66108" lon="4.44338">
        <ele>351.98</ele>
        <time>2013-12-04T15:09:47Z</time>
      </trkpt>
      <trkpt lat="44.66086" lon="4.44339">
        <ele>349.1</ele>
        <time>2013-12-04T15:09:54Z</time>
      </trkpt>
      <trkpt lat="44.66082" lon="4.44339">
        <ele>346.69</ele>
        <time>2013-12-04T15:09:55Z</time>
      </trkpt>
      <trkpt lat="44.66071" lon="4.44339">
        <ele>344.77</ele>
        <time>2013-12-04T15:09:58Z</time>
      </trkpt>
      <trkpt lat="44.66068" lon="4.44339">
        <ele>344.29</ele>
        <time>2013-12-04T15:09:59Z</time>
      </trkpt>
      <trkpt lat="44.66046" lon="4.44342">
        <ele>340.92</ele>
        <time>2013-12-04T15:10:06Z</time>
      </trkpt>
      <trkpt lat="44.6603" lon="4.44343">
        <ele>339</ele>
        <time>2013-12-04T15:10:10Z</time>
      </trkpt>
      <trkpt lat="44.66025" lon="4.44343">
        <ele>338.52</ele>
        <time>2013-12-04T15:10:11Z</time>
      </trkpt>
      <trkpt lat="44.66021" lon="4.44343">
        <ele>338.04</ele>
        <time>2013-12-04T15:10:12Z</time>
      </trkpt>
      <trkpt lat="44.66019" lon="4.44345">
        <ele>337.56</ele>
        <time>2013-12-04T15:10:13Z</time>
      </trkpt>
      <trkpt lat="44.66016" lon="4.44347">
        <ele>337.08</ele>
        <time>2013-12-04T15:10:14Z</time>
      </trkpt>
      <trkpt lat="44.66013" lon="4.44349">
        <ele>336.6</ele>
        <time>2013-12-04T15:10:15Z</time>
      </trkpt>
      <trkpt lat="44.66008" lon="4.44348">
        <ele>336.6</ele>
        <time>2013-12-04T15:10:16Z</time>
      </trkpt>
      <trkpt lat="44.66005" lon="4.44345">
        <ele>336.12</ele>
        <time>2013-12-04T15:10:17Z</time>
      </trkpt>
      <trkpt lat="44.66002" lon="4.44343">
        <ele>336.12</ele>
        <time>2013-12-04T15:10:18Z</time>
      </trkpt>
      <trkpt lat="44.65999" lon="4.44342">
        <ele>335.64</ele>
        <time>2013-12-04T15:10:29Z</time>
      </trkpt>
      <trkpt lat="44.65993" lon="4.44339">
        <ele>335.16</ele>
        <time>2013-12-04T15:10:43Z</time>
      </trkpt>
      <trkpt lat="44.65993" lon="4.44339">
        <ele>335.16</ele>
        <time>2013-12-04T15:11:07Z</time>
      </trkpt>
      <trkpt lat="44.65993" lon="4.44338">
        <ele>335.64</ele>
        <time>2013-12-04T15:11:30Z</time>
      </trkpt>
      <trkpt lat="44.65993" lon="4.44338">
        <ele>335.16</ele>
        <time>2013-12-04T15:11:37Z</time>
      </trkpt>
      <trkpt lat="44.65991" lon="4.44338">
        <ele>335.16</ele>
        <time>2013-12-04T15:11:38Z</time>
      </trkpt>
      <trkpt lat="44.65988" lon="4.44339">
        <ele>335.64</ele>
        <time>2013-12-04T15:11:39Z</time>
      </trkpt>
      <trkpt lat="44.65984" lon="4.44339">
        <ele>335.16</ele>
        <time>2013-12-04T15:11:40Z</time>
      </trkpt>
      <trkpt lat="44.6598" lon="4.4434">
        <ele>334.68</ele>
        <time>2013-12-04T15:11:41Z</time>
      </trkpt>
      <trkpt lat="44.65974" lon="4.44342">
        <ele>333.71</ele>
        <time>2013-12-04T15:11:42Z</time>
      </trkpt>
      <trkpt lat="44.65968" lon="4.44345">
        <ele>333.23</ele>
        <time>2013-12-04T15:11:43Z</time>
      </trkpt>
      <trkpt lat="44.65961" lon="4.44348">
        <ele>332.27</ele>
        <time>2013-12-04T15:11:44Z</time>
      </trkpt>
      <trkpt lat="44.65953" lon="4.44349">
        <ele>331.31</ele>
        <time>2013-12-04T15:11:45Z</time>
      </trkpt>
      <trkpt lat="44.65945" lon="4.44349">
        <ele>330.35</ele>
        <time>2013-12-04T15:11:46Z</time>
      </trkpt>
      <trkpt lat="44.65928" lon="4.44347">
        <ele>328.91</ele>
        <time>2013-12-04T15:11:48Z</time>
      </trkpt>
      <trkpt lat="44.65919" lon="4.44348">
        <ele>328.43</ele>
        <time>2013-12-04T15:11:49Z</time>
      </trkpt>
      <trkpt lat="44.65911" lon="4.4435">
        <ele>327.95</ele>
        <time>2013-12-04T15:11:50Z</time>
      </trkpt>
      <trkpt lat="44.65893" lon="4.44354">
        <ele>327.47</ele>
        <time>2013-12-04T15:11:52Z</time>
      </trkpt>
      <trkpt lat="44.65885" lon="4.44351">
        <ele>326.5</ele>
        <time>2013-12-04T15:11:53Z</time>
      </trkpt>
      <trkpt lat="44.65877" lon="4.44345">
        <ele>326.02</ele>
        <time>2013-12-04T15:11:54Z</time>
      </trkpt>
      <trkpt lat="44.65863" lon="4.44332">
        <ele>325.54</ele>
        <time>2013-12-04T15:11:56Z</time>
      </trkpt>
      <trkpt lat="44.65856" lon="4.44327">
        <ele>324.58</ele>
        <time>2013-12-04T15:11:57Z</time>
      </trkpt>
      <trkpt lat="44.65848" lon="4.44323">
        <ele>324.1</ele>
        <time>2013-12-04T15:11:58Z</time>
      </trkpt>
      <trkpt lat="44.65839" lon="4.44321">
        <ele>323.62</ele>
        <time>2013-12-04T15:11:59Z</time>
      </trkpt>
      <trkpt lat="44.65831" lon="4.44321">
        <ele>322.66</ele>
        <time>2013-12-04T15:12:00Z</time>
      </trkpt>
      <trkpt lat="44.65822" lon="4.4432">
        <ele>322.66</ele>
        <time>2013-12-04T15:12:01Z</time>
      </trkpt>
      <trkpt lat="44.65813" lon="4.44319">
        <ele>320.74</ele>
        <time>2013-12-04T15:12:02Z</time>
      </trkpt>
      <trkpt lat="44.65784" lon="4.44314">
        <ele>317.85</ele>
        <time>2013-12-04T15:12:05Z</time>
      </trkpt>
      <trkpt lat="44.65747" lon="4.4431">
        <ele>314.01</ele>
        <time>2013-12-04T15:12:09Z</time>
      </trkpt>
      <trkpt lat="44.65729" lon="4.44304">
        <ele>313.05</ele>
        <time>2013-12-04T15:12:11Z</time>
      </trkpt>
      <trkpt lat="44.6572" lon="4.44299">
        <ele>312.57</ele>
        <time>2013-12-04T15:12:12Z</time>
      </trkpt>
      <trkpt lat="44.65713" lon="4.44293">
        <ele>311.6</ele>
        <time>2013-12-04T15:12:13Z</time>
      </trkpt>
      <trkpt lat="44.65687" lon="4.44271">
        <ele>309.2</ele>
        <time>2013-12-04T15:12:17Z</time>
      </trkpt>
      <trkpt lat="44.65681" lon="4.44268">
        <ele>308.72</ele>
        <time>2013-12-04T15:12:18Z</time>
      </trkpt>
      <trkpt lat="44.65676" lon="4.44268">
        <ele>308.24</ele>
        <time>2013-12-04T15:12:19Z</time>
      </trkpt>
      <trkpt lat="44.65671" lon="4.44271">
        <ele>307.28</ele>
        <time>2013-12-04T15:12:20Z</time>
      </trkpt>
      <trkpt lat="44.65668" lon="4.44277">
        <ele>306.8</ele>
        <time>2013-12-04T15:12:21Z</time>
      </trkpt>
      <trkpt lat="44.65666" lon="4.44282">
        <ele>306.32</ele>
        <time>2013-12-04T15:12:22Z</time>
      </trkpt>
      <trkpt lat="44.65662" lon="4.44289">
        <ele>304.88</ele>
        <time>2013-12-04T15:12:24Z</time>
      </trkpt>
      <trkpt lat="44.6566" lon="4.44289">
        <ele>304.88</ele>
        <time>2013-12-04T15:12:25Z</time>
      </trkpt>
      <trkpt lat="44.65659" lon="4.44288">
        <ele>304.88</ele>
        <time>2013-12-04T15:12:26Z</time>
      </trkpt>
      <trkpt lat="44.65658" lon="4.44288">
        <ele>304.39</ele>
        <time>2013-12-04T15:12:41Z</time>
      </trkpt>
      <trkpt lat="44.65652" lon="4.44285">
        <ele>304.39</ele>
        <time>2013-12-04T15:12:44Z</time>
      </trkpt>
      <trkpt lat="44.65647" lon="4.44285">
        <ele>303.43</ele>
        <time>2013-12-04T15:12:45Z</time>
      </trkpt>
      <trkpt lat="44.65642" lon="4.44288">
        <ele>302.47</ele>
        <time>2013-12-04T15:12:46Z</time>
      </trkpt>
      <trkpt lat="44.65636" lon="4.44292">
        <ele>301.51</ele>
        <time>2013-12-04T15:12:47Z</time>
      </trkpt>
      <trkpt lat="44.65623" lon="4.44304">
        <ele>300.07</ele>
        <time>2013-12-04T15:12:49Z</time>
      </trkpt>
      <trkpt lat="44.65603" lon="4.44321">
        <ele>295.74</ele>
        <time>2013-12-04T15:12:52Z</time>
      </trkpt>
      <trkpt lat="44.65585" lon="4.4434">
        <ele>292.38</ele>
        <time>2013-12-04T15:12:55Z</time>
      </trkpt>
      <trkpt lat="44.65561" lon="4.44365">
        <ele>288.53</ele>
        <time>2013-12-04T15:12:59Z</time>
      </trkpt>
      <trkpt lat="44.65556" lon="4.44371">
        <ele>287.09</ele>
        <time>2013-12-04T15:13:00Z</time>
      </trkpt>
      <trkpt lat="44.65551" lon="4.44376">
        <ele>285.65</ele>
        <time>2013-12-04T15:13:01Z</time>
      </trkpt>
      <trkpt lat="44.65545" lon="4.4438">
        <ele>284.69</ele>
        <time>2013-12-04T15:13:02Z</time>
      </trkpt>
      <trkpt lat="44.65539" lon="4.44383">
        <ele>284.21</ele>
        <time>2013-12-04T15:13:03Z</time>
      </trkpt>
      <trkpt lat="44.65532" lon="4.44386">
        <ele>283.73</ele>
        <time>2013-12-04T15:13:04Z</time>
      </trkpt>
      <trkpt lat="44.65525" lon="4.4439">
        <ele>283.25</ele>
        <time>2013-12-04T15:13:05Z</time>
      </trkpt>
      <trkpt lat="44.65494" lon="4.44407">
        <ele>280.36</ele>
        <time>2013-12-04T15:13:09Z</time>
      </trkpt>
      <trkpt lat="44.65485" lon="4.44409">
        <ele>280.36</ele>
        <time>2013-12-04T15:13:10Z</time>
      </trkpt>
      <trkpt lat="44.65477" lon="4.44409">
        <ele>279.88</ele>
        <time>2013-12-04T15:13:11Z</time>
      </trkpt>
      <trkpt lat="44.6544" lon="4.44405">
        <ele>278.92</ele>
        <time>2013-12-04T15:13:18Z</time>
      </trkpt>
      <trkpt lat="44.65438" lon="4.44403">
        <ele>278.92</ele>
        <time>2013-12-04T15:13:19Z</time>
      </trkpt>
      <trkpt lat="44.65436" lon="4.44402">
        <ele>278.92</ele>
        <time>2013-12-04T15:13:20Z</time>
      </trkpt>
      <trkpt lat="44.65434" lon="4.44402">
        <ele>278.92</ele>
        <time>2013-12-04T15:13:21Z</time>
      </trkpt>
      <trkpt lat="44.65434" lon="4.44404">
        <ele>278.92</ele>
        <time>2013-12-04T15:13:22Z</time>
      </trkpt>
      <trkpt lat="44.65434" lon="4.44406">
        <ele>278.92</ele>
        <time>2013-12-04T15:13:23Z</time>
      </trkpt>
      <trkpt lat="44.65435" lon="4.44408">
        <ele>278.92</ele>
        <time>2013-12-04T15:13:24Z</time>
      </trkpt>
      <trkpt lat="44.65437" lon="4.4441">
        <ele>278.92</ele>
        <time>2013-12-04T15:13:25Z</time>
      </trkpt>
      <trkpt lat="44.65439" lon="4.44412">
        <ele>278.44</ele>
        <time>2013-12-04T15:13:26Z</time>
      </trkpt>
      <trkpt lat="44.65442" lon="4.44415">
        <ele>277.96</ele>
        <time>2013-12-04T15:13:27Z</time>
      </trkpt>
      <trkpt lat="44.65445" lon="4.4442">
        <ele>276.52</ele>
        <time>2013-12-04T15:13:28Z</time>
      </trkpt>
      <trkpt lat="44.65448" lon="4.44428">
        <ele>275.07</ele>
        <time>2013-12-04T15:13:30Z</time>
      </trkpt>
      <trkpt lat="44.65447" lon="4.44432">
        <ele>274.11</ele>
        <time>2013-12-04T15:13:31Z</time>
      </trkpt>
      <trkpt lat="44.65444" lon="4.44435">
        <ele>274.59</ele>
        <time>2013-12-04T15:13:32Z</time>
      </trkpt>
      <trkpt lat="44.65416" lon="4.44459">
        <ele>275.56</ele>
        <time>2013-12-04T15:13:44Z</time>
      </trkpt>
      <trkpt lat="44.65398" lon="4.44476">
        <ele>276.04</ele>
        <time>2013-12-04T15:13:55Z</time>
      </trkpt>
      <trkpt lat="44.65372" lon="4.44483">
        <ele>277.96</ele>
        <time>2013-12-04T15:14:06Z</time>
      </trkpt>
      <trkpt lat="44.65359" lon="4.44485">
        <ele>279.4</ele>
        <time>2013-12-04T15:14:12Z</time>
      </trkpt>
      <trkpt lat="44.65357" lon="4.44483">
        <ele>278.92</ele>
        <time>2013-12-04T15:14:13Z</time>
      </trkpt>
      <trkpt lat="44.65355" lon="4.4448">
        <ele>279.4</ele>
        <time>2013-12-04T15:14:14Z</time>
      </trkpt>
      <trkpt lat="44.65352" lon="4.44477">
        <ele>279.4</ele>
        <time>2013-12-04T15:14:15Z</time>
      </trkpt>
      <trkpt lat="44.65349" lon="4.44474">
        <ele>279.4</ele>
        <time>2013-12-04T15:14:16Z</time>
      </trkpt>
      <trkpt lat="44.65346" lon="4.44472">
        <ele>278.92</ele>
        <time>2013-12-04T15:14:17Z</time>
      </trkpt>
      <trkpt lat="44.65315" lon="4.44443">
        <ele>278.92</ele>
        <time>2013-12-04T15:14:28Z</time>
      </trkpt>
      <trkpt lat="44.65298" lon="4.44425">
        <ele>279.4</ele>
        <time>2013-12-04T15:14:39Z</time>
      </trkpt>
      <trkpt lat="44.65297" lon="4.44425">
        <ele>278.92</ele>
        <time>2013-12-04T15:14:40Z</time>
      </trkpt>
      <trkpt lat="44.65296" lon="4.44427">
        <ele>278.92</ele>
        <time>2013-12-04T15:14:42Z</time>
      </trkpt>
      <trkpt lat="44.65294" lon="4.44428">
        <ele>278.92</ele>
        <time>2013-12-04T15:14:43Z</time>
      </trkpt>
      <trkpt lat="44.65293" lon="4.44429">
        <ele>278.92</ele>
        <time>2013-12-04T15:14:44Z</time>
      </trkpt>
      <trkpt lat="44.65292" lon="4.44432">
        <ele>278.92</ele>
        <time>2013-12-04T15:14:45Z</time>
      </trkpt>
      <trkpt lat="44.65291" lon="4.44435">
        <ele>279.4</ele>
        <time>2013-12-04T15:14:46Z</time>
      </trkpt>
      <trkpt lat="44.65289" lon="4.44439">
        <ele>279.4</ele>
        <time>2013-12-04T15:14:47Z</time>
      </trkpt>
      <trkpt lat="44.65287" lon="4.44443">
        <ele>279.88</ele>
        <time>2013-12-04T15:14:48Z</time>
      </trkpt>
      <trkpt lat="44.65268" lon="4.44477">
        <ele>281.32</ele>
        <time>2013-12-04T15:14:57Z</time>
      </trkpt>
      <trkpt lat="44.65253" lon="4.445">
        <ele>283.25</ele>
        <time>2013-12-04T15:15:06Z</time>
      </trkpt>
      <trkpt lat="44.65241" lon="4.4453">
        <ele>283.25</ele>
        <time>2013-12-04T15:15:16Z</time>
      </trkpt>
      <trkpt lat="44.65231" lon="4.4455">
        <ele>283.25</ele>
        <time>2013-12-04T15:15:22Z</time>
      </trkpt>
      <trkpt lat="44.65228" lon="4.44551">
        <ele>283.25</ele>
        <time>2013-12-04T15:15:23Z</time>
      </trkpt>
      <trkpt lat="44.65226" lon="4.44551">
        <ele>283.25</ele>
        <time>2013-12-04T15:15:24Z</time>
      </trkpt>
      <trkpt lat="44.65224" lon="4.44551">
        <ele>282.77</ele>
        <time>2013-12-04T15:15:34Z</time>
      </trkpt>
      <trkpt lat="44.65224" lon="4.44551">
        <ele>283.25</ele>
        <time>2013-12-04T15:15:48Z</time>
      </trkpt>
      <trkpt lat="44.65223" lon="4.4455">
        <ele>283.25</ele>
        <time>2013-12-04T15:16:03Z</time>
      </trkpt>
      <trkpt lat="44.65222" lon="4.44551">
        <ele>283.73</ele>
        <time>2013-12-04T15:16:16Z</time>
      </trkpt>
      <trkpt lat="44.65221" lon="4.4455">
        <ele>283.25</ele>
        <time>2013-12-04T15:16:31Z</time>
      </trkpt>
      <trkpt lat="44.65222" lon="4.44549">
        <ele>283.73</ele>
        <time>2013-12-04T15:16:42Z</time>
      </trkpt>
      <trkpt lat="44.65221" lon="4.44548">
        <ele>283.25</ele>
        <time>2013-12-04T15:16:57Z</time>
      </trkpt>
      <trkpt lat="44.65222" lon="4.44548">
        <ele>283.25</ele>
        <time>2013-12-04T15:17:01Z</time>
      </trkpt>
      <trkpt lat="44.65224" lon="4.4455">
        <ele>283.25</ele>
        <time>2013-12-04T15:17:13Z</time>
      </trkpt>
      <trkpt lat="44.65225" lon="4.4455">
        <ele>283.73</ele>
        <time>2013-12-04T15:17:31Z</time>
      </trkpt>
      <trkpt lat="44.65227" lon="4.44549">
        <ele>283.73</ele>
        <time>2013-12-04T15:17:34Z</time>
      </trkpt>
    </trkseg>
  </trk>
</gpx>